<?xml version="1.0" encoding="utf-8"?>
<gpx xmlns:xsi="http://www.w3.org/2001/XMLSchema-instance" xmlns:xsd="http://www.w3.org/2001/XMLSchema" version="1.1" creator="Shapelink.com" xmlns="http://www.topografix.com/GPX/1/1" xmlns:gpxtpx="http://www.garmin.com/xmlschemas/TrackPointExtension/v1">
  <metadata>
    <name>Cykling 28.20 km, 2011-06-22</name>
    <desc></desc>
    <author><name>Jojje Borssén</name></author> 
    <time>2011-06-22T16:35:43Z</time>
  </metadata>
  <trk>
    <name>Cykling 28.20 km, 2011-06-22</name>
    <trkseg>
      <trkpt lat="60.878613" lon="15.121377">
        <ele>138.44</ele>
        <time>2011-06-22T16:35:43Z</time>
      </trkpt>
      <trkpt lat="60.878812" lon="15.121544">
        <ele>137.559</ele>
        <time>2011-06-22T16:35:49Z</time>
      </trkpt>
      <trkpt lat="60.878954" lon="15.121656">
        <ele>135.965</ele>
        <time>2011-06-22T16:35:53Z</time>
      </trkpt>
      <trkpt lat="60.879165" lon="15.121899">
        <ele>134.597</ele>
        <time>2011-06-22T16:36:00Z</time>
      </trkpt>
      <trkpt lat="60.879349" lon="15.122128">
        <ele>133.31</ele>
        <time>2011-06-22T16:36:08Z</time>
      </trkpt>
      <trkpt lat="60.879507" lon="15.122302">
        <ele>131.923</ele>
        <time>2011-06-22T16:36:14Z</time>
      </trkpt>
      <trkpt lat="60.879666" lon="15.122507">
        <ele>130.286</ele>
        <time>2011-06-22T16:36:19Z</time>
      </trkpt>
      <trkpt lat="60.879807" lon="15.122668">
        <ele>129.025</ele>
        <time>2011-06-22T16:36:23Z</time>
      </trkpt>
      <trkpt lat="60.880117" lon="15.12302">
        <ele>126.088</ele>
        <time>2011-06-22T16:36:32Z</time>
      </trkpt>
      <trkpt lat="60.880439" lon="15.123329">
        <ele>123.699</ele>
        <time>2011-06-22T16:36:41Z</time>
      </trkpt>
      <trkpt lat="60.880665" lon="15.123541">
        <ele>121.831</ele>
        <time>2011-06-22T16:36:47Z</time>
      </trkpt>
      <trkpt lat="60.880878" lon="15.123951">
        <ele>120.751</ele>
        <time>2011-06-22T16:36:53Z</time>
      </trkpt>
      <trkpt lat="60.881165" lon="15.124623">
        <ele>120.766</ele>
        <time>2011-06-22T16:37:01Z</time>
      </trkpt>
      <trkpt lat="60.881198" lon="15.124703">
        <ele>121.03</ele>
        <time>2011-06-22T16:37:02Z</time>
      </trkpt>
      <trkpt lat="60.881458" lon="15.125217">
        <ele>120.21</ele>
        <time>2011-06-22T16:37:08Z</time>
      </trkpt>
      <trkpt lat="60.881599" lon="15.125523">
        <ele>118.871</ele>
        <time>2011-06-22T16:37:11Z</time>
      </trkpt>
      <trkpt lat="60.882022" lon="15.126453">
        <ele>118.059</ele>
        <time>2011-06-22T16:37:20Z</time>
      </trkpt>
      <trkpt lat="60.882385" lon="15.127345">
        <ele>116.677</ele>
        <time>2011-06-22T16:37:28Z</time>
      </trkpt>
      <trkpt lat="60.882634" lon="15.127986">
        <ele>116.525</ele>
        <time>2011-06-22T16:37:34Z</time>
      </trkpt>
      <trkpt lat="60.882938" lon="15.128665">
        <ele>116.976</ele>
        <time>2011-06-22T16:37:41Z</time>
      </trkpt>
      <trkpt lat="60.883288" lon="15.129397">
        <ele>116.932</ele>
        <time>2011-06-22T16:37:49Z</time>
      </trkpt>
      <trkpt lat="60.883375" lon="15.129581">
        <ele>116.932</ele>
        <time>2011-06-22T16:37:51Z</time>
      </trkpt>
      <trkpt lat="60.883644" lon="15.130137">
        <ele>116.793</ele>
        <time>2011-06-22T16:37:57Z</time>
      </trkpt>
      <trkpt lat="60.884047" lon="15.130935">
        <ele>117.092</ele>
        <time>2011-06-22T16:38:06Z</time>
      </trkpt>
      <trkpt lat="60.884396" lon="15.131656">
        <ele>117.158</ele>
        <time>2011-06-22T16:38:14Z</time>
      </trkpt>
      <trkpt lat="60.88471" lon="15.132289">
        <ele>117.519</ele>
        <time>2011-06-22T16:38:21Z</time>
      </trkpt>
      <trkpt lat="60.885128" lon="15.133128">
        <ele>118.126</ele>
        <time>2011-06-22T16:38:30Z</time>
      </trkpt>
      <trkpt lat="60.88562" lon="15.134115">
        <ele>117.995</ele>
        <time>2011-06-22T16:38:41Z</time>
      </trkpt>
      <trkpt lat="60.885986" lon="15.134842">
        <ele>118.485</ele>
        <time>2011-06-22T16:38:49Z</time>
      </trkpt>
      <trkpt lat="60.886402" lon="15.135663">
        <ele>118.739</ele>
        <time>2011-06-22T16:38:58Z</time>
      </trkpt>
      <trkpt lat="60.886783" lon="15.13639">
        <ele>119.303</ele>
        <time>2011-06-22T16:39:06Z</time>
      </trkpt>
      <trkpt lat="60.887319" lon="15.137221">
        <ele>118.796</ele>
        <time>2011-06-22T16:39:16Z</time>
      </trkpt>
      <trkpt lat="60.887825" lon="15.137907">
        <ele>118.676</ele>
        <time>2011-06-22T16:39:25Z</time>
      </trkpt>
      <trkpt lat="60.888364" lon="15.138626">
        <ele>119.031</ele>
        <time>2011-06-22T16:39:35Z</time>
      </trkpt>
      <trkpt lat="60.888613" lon="15.138936">
        <ele>119.352</ele>
        <time>2011-06-22T16:39:40Z</time>
      </trkpt>
      <trkpt lat="60.888801" lon="15.139033">
        <ele>119.434</ele>
        <time>2011-06-22T16:39:44Z</time>
      </trkpt>
      <trkpt lat="60.88892" lon="15.138997">
        <ele>119.554</ele>
        <time>2011-06-22T16:39:48Z</time>
      </trkpt>
      <trkpt lat="60.88894" lon="15.138731">
        <ele>119.214</ele>
        <time>2011-06-22T16:39:52Z</time>
      </trkpt>
      <trkpt lat="60.888926" lon="15.138648">
        <ele>119.043</ele>
        <time>2011-06-22T16:39:53Z</time>
      </trkpt>
      <trkpt lat="60.888839" lon="15.138107">
        <ele>117.011</ele>
        <time>2011-06-22T16:39:58Z</time>
      </trkpt>
      <trkpt lat="60.888721" lon="15.137366">
        <ele>113.451</ele>
        <time>2011-06-22T16:40:03Z</time>
      </trkpt>
      <trkpt lat="60.888555" lon="15.136315">
        <ele>109.719</ele>
        <time>2011-06-22T16:40:09Z</time>
      </trkpt>
      <trkpt lat="60.888527" lon="15.136132">
        <ele>109.454</ele>
        <time>2011-06-22T16:40:10Z</time>
      </trkpt>
      <trkpt lat="60.88844" lon="15.135591">
        <ele>108.113</ele>
        <time>2011-06-22T16:40:13Z</time>
      </trkpt>
      <trkpt lat="60.888244" lon="15.134242">
        <ele>108.252</ele>
        <time>2011-06-22T16:40:21Z</time>
      </trkpt>
      <trkpt lat="60.888191" lon="15.133125">
        <ele>108.658</ele>
        <time>2011-06-22T16:40:28Z</time>
      </trkpt>
      <trkpt lat="60.888163" lon="15.132087">
        <ele>109.047</ele>
        <time>2011-06-22T16:40:35Z</time>
      </trkpt>
      <trkpt lat="60.888132" lon="15.131385">
        <ele>110.27</ele>
        <time>2011-06-22T16:40:40Z</time>
      </trkpt>
      <trkpt lat="60.888113" lon="15.130599">
        <ele>111.501</ele>
        <time>2011-06-22T16:40:46Z</time>
      </trkpt>
      <trkpt lat="60.888093" lon="15.129731">
        <ele>112.031</ele>
        <time>2011-06-22T16:40:53Z</time>
      </trkpt>
      <trkpt lat="60.888072" lon="15.129022">
        <ele>112.173</ele>
        <time>2011-06-22T16:40:59Z</time>
      </trkpt>
      <trkpt lat="60.888046" lon="15.128203">
        <ele>114.523</ele>
        <time>2011-06-22T16:41:06Z</time>
      </trkpt>
      <trkpt lat="60.888014" lon="15.127113">
        <ele>114.248</ele>
        <time>2011-06-22T16:41:15Z</time>
      </trkpt>
      <trkpt lat="60.887973" lon="15.125971">
        <ele>114.04</ele>
        <time>2011-06-22T16:41:24Z</time>
      </trkpt>
      <trkpt lat="60.887929" lon="15.124622">
        <ele>113.121</ele>
        <time>2011-06-22T16:41:34Z</time>
      </trkpt>
      <trkpt lat="60.887921" lon="15.124355">
        <ele>112.884</ele>
        <time>2011-06-22T16:41:36Z</time>
      </trkpt>
      <trkpt lat="60.888032" lon="15.123935">
        <ele>112.619</ele>
        <time>2011-06-22T16:41:40Z</time>
      </trkpt>
      <trkpt lat="60.888196" lon="15.123896">
        <ele>112.831</ele>
        <time>2011-06-22T16:41:43Z</time>
      </trkpt>
      <trkpt lat="60.88825" lon="15.123918">
        <ele>112.917</ele>
        <time>2011-06-22T16:41:44Z</time>
      </trkpt>
      <trkpt lat="60.888817" lon="15.124131">
        <ele>113.192</ele>
        <time>2011-06-22T16:41:54Z</time>
      </trkpt>
      <trkpt lat="60.88934" lon="15.124323">
        <ele>113.01</ele>
        <time>2011-06-22T16:42:03Z</time>
      </trkpt>
      <trkpt lat="60.889833" lon="15.124505">
        <ele>112.92</ele>
        <time>2011-06-22T16:42:11Z</time>
      </trkpt>
      <trkpt lat="60.890414" lon="15.124706">
        <ele>113.986</ele>
        <time>2011-06-22T16:42:20Z</time>
      </trkpt>
      <trkpt lat="60.891006" lon="15.124917">
        <ele>114.039</ele>
        <time>2011-06-22T16:42:29Z</time>
      </trkpt>
      <trkpt lat="60.891643" lon="15.125123">
        <ele>114.562</ele>
        <time>2011-06-22T16:42:39Z</time>
      </trkpt>
      <trkpt lat="60.891768" lon="15.125156">
        <ele>114.609</ele>
        <time>2011-06-22T16:42:41Z</time>
      </trkpt>
      <trkpt lat="60.892246" lon="15.125386">
        <ele>115.351</ele>
        <time>2011-06-22T16:42:49Z</time>
      </trkpt>
      <trkpt lat="60.892704" lon="15.125547">
        <ele>115.114</ele>
        <time>2011-06-22T16:42:56Z</time>
      </trkpt>
      <trkpt lat="60.893094" lon="15.125691">
        <ele>114.977</ele>
        <time>2011-06-22T16:43:02Z</time>
      </trkpt>
      <trkpt lat="60.893487" lon="15.125829">
        <ele>115.769</ele>
        <time>2011-06-22T16:43:09Z</time>
      </trkpt>
      <trkpt lat="60.893938" lon="15.125972">
        <ele>116.396</ele>
        <time>2011-06-22T16:43:17Z</time>
      </trkpt>
      <trkpt lat="60.894397" lon="15.12616">
        <ele>117.369</ele>
        <time>2011-06-22T16:43:25Z</time>
      </trkpt>
      <trkpt lat="60.894812" lon="15.126308">
        <ele>118.036</ele>
        <time>2011-06-22T16:43:32Z</time>
      </trkpt>
      <trkpt lat="60.895283" lon="15.126412">
        <ele>118.97</ele>
        <time>2011-06-22T16:43:40Z</time>
      </trkpt>
      <trkpt lat="60.895676" lon="15.126443">
        <ele>119.996</ele>
        <time>2011-06-22T16:43:47Z</time>
      </trkpt>
      <trkpt lat="60.895996" lon="15.126448">
        <ele>121.072</ele>
        <time>2011-06-22T16:43:53Z</time>
      </trkpt>
      <trkpt lat="60.896307" lon="15.126416">
        <ele>122.593</ele>
        <time>2011-06-22T16:43:59Z</time>
      </trkpt>
      <trkpt lat="60.896596" lon="15.126305">
        <ele>123.33</ele>
        <time>2011-06-22T16:44:05Z</time>
      </trkpt>
      <trkpt lat="60.89706" lon="15.125834">
        <ele>123.911</ele>
        <time>2011-06-22T16:44:15Z</time>
      </trkpt>
      <trkpt lat="60.897458" lon="15.125375">
        <ele>124.054</ele>
        <time>2011-06-22T16:44:23Z</time>
      </trkpt>
      <trkpt lat="60.897846" lon="15.124846">
        <ele>124.059</ele>
        <time>2011-06-22T16:44:31Z</time>
      </trkpt>
      <trkpt lat="60.898197" lon="15.124242">
        <ele>124.675</ele>
        <time>2011-06-22T16:44:39Z</time>
      </trkpt>
      <trkpt lat="60.898593" lon="15.1235">
        <ele>124.805</ele>
        <time>2011-06-22T16:44:48Z</time>
      </trkpt>
      <trkpt lat="60.898995" lon="15.122939">
        <ele>124.969</ele>
        <time>2011-06-22T16:44:56Z</time>
      </trkpt>
      <trkpt lat="60.899384" lon="15.122624">
        <ele>125.441</ele>
        <time>2011-06-22T16:45:03Z</time>
      </trkpt>
      <trkpt lat="60.899902" lon="15.122259">
        <ele>125.251</ele>
        <time>2011-06-22T16:45:12Z</time>
      </trkpt>
      <trkpt lat="60.900348" lon="15.12196">
        <ele>125.64</ele>
        <time>2011-06-22T16:45:20Z</time>
      </trkpt>
      <trkpt lat="60.900859" lon="15.121625">
        <ele>125.894</ele>
        <time>2011-06-22T16:45:29Z</time>
      </trkpt>
      <trkpt lat="60.901216" lon="15.121514">
        <ele>125.984</ele>
        <time>2011-06-22T16:45:35Z</time>
      </trkpt>
      <trkpt lat="60.901458" lon="15.121613">
        <ele>126.364</ele>
        <time>2011-06-22T16:45:39Z</time>
      </trkpt>
      <trkpt lat="60.902051" lon="15.122014">
        <ele>127.326</ele>
        <time>2011-06-22T16:45:49Z</time>
      </trkpt>
      <trkpt lat="60.902503" lon="15.122218">
        <ele>127.074</ele>
        <time>2011-06-22T16:45:56Z</time>
      </trkpt>
      <trkpt lat="60.902957" lon="15.122355">
        <ele>127.153</ele>
        <time>2011-06-22T16:46:03Z</time>
      </trkpt>
      <trkpt lat="60.903463" lon="15.122518">
        <ele>128.092</ele>
        <time>2011-06-22T16:46:11Z</time>
      </trkpt>
      <trkpt lat="60.903966" lon="15.122667">
        <ele>128.989</ele>
        <time>2011-06-22T16:46:19Z</time>
      </trkpt>
      <trkpt lat="60.90439" lon="15.122799">
        <ele>129.753</ele>
        <time>2011-06-22T16:46:26Z</time>
      </trkpt>
      <trkpt lat="60.904867" lon="15.122947">
        <ele>130.629</ele>
        <time>2011-06-22T16:46:34Z</time>
      </trkpt>
      <trkpt lat="60.905415" lon="15.123088">
        <ele>131.209</ele>
        <time>2011-06-22T16:46:43Z</time>
      </trkpt>
      <trkpt lat="60.905842" lon="15.123096">
        <ele>131.291</ele>
        <time>2011-06-22T16:46:50Z</time>
      </trkpt>
      <trkpt lat="60.906346" lon="15.123068">
        <ele>131.697</ele>
        <time>2011-06-22T16:46:58Z</time>
      </trkpt>
      <trkpt lat="60.906777" lon="15.123045">
        <ele>132.067</ele>
        <time>2011-06-22T16:47:05Z</time>
      </trkpt>
      <trkpt lat="60.907141" lon="15.123022">
        <ele>132.803</ele>
        <time>2011-06-22T16:47:11Z</time>
      </trkpt>
      <trkpt lat="60.907566" lon="15.123003">
        <ele>133.632</ele>
        <time>2011-06-22T16:47:18Z</time>
      </trkpt>
      <trkpt lat="60.908037" lon="15.122973">
        <ele>134.251</ele>
        <time>2011-06-22T16:47:26Z</time>
      </trkpt>
      <trkpt lat="60.908507" lon="15.122922">
        <ele>135.042</ele>
        <time>2011-06-22T16:47:34Z</time>
      </trkpt>
      <trkpt lat="60.909053" lon="15.122879">
        <ele>135.815</ele>
        <time>2011-06-22T16:47:44Z</time>
      </trkpt>
      <trkpt lat="60.909436" lon="15.122874">
        <ele>136.464</ele>
        <time>2011-06-22T16:47:51Z</time>
      </trkpt>
      <trkpt lat="60.909744" lon="15.122858">
        <ele>136.183</ele>
        <time>2011-06-22T16:47:56Z</time>
      </trkpt>
      <trkpt lat="60.910166" lon="15.122837">
        <ele>135.744</ele>
        <time>2011-06-22T16:48:03Z</time>
      </trkpt>
      <trkpt lat="60.910628" lon="15.122794">
        <ele>134.824</ele>
        <time>2011-06-22T16:48:10Z</time>
      </trkpt>
      <trkpt lat="60.911012" lon="15.122783">
        <ele>134.543</ele>
        <time>2011-06-22T16:48:16Z</time>
      </trkpt>
      <trkpt lat="60.911491" lon="15.122748">
        <ele>135.02</ele>
        <time>2011-06-22T16:48:24Z</time>
      </trkpt>
      <trkpt lat="60.911919" lon="15.122728">
        <ele>135.018</ele>
        <time>2011-06-22T16:48:31Z</time>
      </trkpt>
      <trkpt lat="60.912273" lon="15.122721">
        <ele>136.864</ele>
        <time>2011-06-22T16:48:38Z</time>
      </trkpt>
      <trkpt lat="60.912497" lon="15.122726">
        <ele>138.862</ele>
        <time>2011-06-22T16:48:44Z</time>
      </trkpt>
      <trkpt lat="60.912647" lon="15.122707">
        <ele>140.351</ele>
        <time>2011-06-22T16:48:49Z</time>
      </trkpt>
      <trkpt lat="60.912753" lon="15.122705">
        <ele>141.543</ele>
        <time>2011-06-22T16:48:54Z</time>
      </trkpt>
      <trkpt lat="60.912869" lon="15.122689">
        <ele>142.633</ele>
        <time>2011-06-22T16:49:00Z</time>
      </trkpt>
      <trkpt lat="60.912999" lon="15.122685">
        <ele>143.48</ele>
        <time>2011-06-22T16:49:06Z</time>
      </trkpt>
      <trkpt lat="60.913123" lon="15.122682">
        <ele>144.276</ele>
        <time>2011-06-22T16:49:10Z</time>
      </trkpt>
      <trkpt lat="60.913241" lon="15.122679">
        <ele>145.437</ele>
        <time>2011-06-22T16:49:14Z</time>
      </trkpt>
      <trkpt lat="60.9134" lon="15.122696">
        <ele>147.116</ele>
        <time>2011-06-22T16:49:19Z</time>
      </trkpt>
      <trkpt lat="60.913558" lon="15.122693">
        <ele>148.31</ele>
        <time>2011-06-22T16:49:24Z</time>
      </trkpt>
      <trkpt lat="60.913736" lon="15.122699">
        <ele>150.199</ele>
        <time>2011-06-22T16:49:30Z</time>
      </trkpt>
      <trkpt lat="60.913903" lon="15.12269">
        <ele>151.445</ele>
        <time>2011-06-22T16:49:35Z</time>
      </trkpt>
      <trkpt lat="60.91407" lon="15.122688">
        <ele>152.756</ele>
        <time>2011-06-22T16:49:40Z</time>
      </trkpt>
      <trkpt lat="60.914244" lon="15.122679">
        <ele>154.075</ele>
        <time>2011-06-22T16:49:45Z</time>
      </trkpt>
      <trkpt lat="60.914396" lon="15.12268">
        <ele>155.102</ele>
        <time>2011-06-22T16:49:49Z</time>
      </trkpt>
      <trkpt lat="60.914566" lon="15.122674">
        <ele>156.239</ele>
        <time>2011-06-22T16:49:53Z</time>
      </trkpt>
      <trkpt lat="60.914759" lon="15.122651">
        <ele>157.772</ele>
        <time>2011-06-22T16:49:58Z</time>
      </trkpt>
      <trkpt lat="60.915012" lon="15.122634">
        <ele>159.021</ele>
        <time>2011-06-22T16:50:05Z</time>
      </trkpt>
      <trkpt lat="60.915316" lon="15.122601">
        <ele>160.609</ele>
        <time>2011-06-22T16:50:13Z</time>
      </trkpt>
      <trkpt lat="60.915546" lon="15.122587">
        <ele>162.081</ele>
        <time>2011-06-22T16:50:19Z</time>
      </trkpt>
      <trkpt lat="60.915726" lon="15.122566">
        <ele>163.324</ele>
        <time>2011-06-22T16:50:24Z</time>
      </trkpt>
      <trkpt lat="60.91592" lon="15.122543">
        <ele>164.451</ele>
        <time>2011-06-22T16:50:29Z</time>
      </trkpt>
      <trkpt lat="60.916115" lon="15.122548">
        <ele>165.618</ele>
        <time>2011-06-22T16:50:34Z</time>
      </trkpt>
      <trkpt lat="60.916333" lon="15.12253">
        <ele>167.369</ele>
        <time>2011-06-22T16:50:40Z</time>
      </trkpt>
      <trkpt lat="60.916502" lon="15.122523">
        <ele>168.451</ele>
        <time>2011-06-22T16:50:45Z</time>
      </trkpt>
      <trkpt lat="60.916659" lon="15.122534">
        <ele>169.568</ele>
        <time>2011-06-22T16:50:50Z</time>
      </trkpt>
      <trkpt lat="60.916864" lon="15.122506">
        <ele>171.15</ele>
        <time>2011-06-22T16:50:56Z</time>
      </trkpt>
      <trkpt lat="60.917042" lon="15.122487">
        <ele>172.01</ele>
        <time>2011-06-22T16:51:01Z</time>
      </trkpt>
      <trkpt lat="60.917263" lon="15.122441">
        <ele>173.226</ele>
        <time>2011-06-22T16:51:07Z</time>
      </trkpt>
      <trkpt lat="60.917471" lon="15.122369">
        <ele>174.699</ele>
        <time>2011-06-22T16:51:13Z</time>
      </trkpt>
      <trkpt lat="60.917707" lon="15.122251">
        <ele>175.753</ele>
        <time>2011-06-22T16:51:20Z</time>
      </trkpt>
      <trkpt lat="60.91793" lon="15.122125">
        <ele>177.118</ele>
        <time>2011-06-22T16:51:27Z</time>
      </trkpt>
      <trkpt lat="60.918173" lon="15.121986">
        <ele>178.387</ele>
        <time>2011-06-22T16:51:34Z</time>
      </trkpt>
      <trkpt lat="60.918438" lon="15.121819">
        <ele>179.528</ele>
        <time>2011-06-22T16:51:41Z</time>
      </trkpt>
      <trkpt lat="60.918723" lon="15.121657">
        <ele>180.593</ele>
        <time>2011-06-22T16:51:48Z</time>
      </trkpt>
      <trkpt lat="60.918983" lon="15.121476">
        <ele>181.965</ele>
        <time>2011-06-22T16:51:55Z</time>
      </trkpt>
      <trkpt lat="60.919236" lon="15.121331">
        <ele>183.132</ele>
        <time>2011-06-22T16:52:02Z</time>
      </trkpt>
      <trkpt lat="60.919552" lon="15.121143">
        <ele>184.112</ele>
        <time>2011-06-22T16:52:10Z</time>
      </trkpt>
      <trkpt lat="60.919841" lon="15.120949">
        <ele>185.026</ele>
        <time>2011-06-22T16:52:17Z</time>
      </trkpt>
      <trkpt lat="60.920133" lon="15.120746">
        <ele>186.09</ele>
        <time>2011-06-22T16:52:24Z</time>
      </trkpt>
      <trkpt lat="60.920507" lon="15.120466">
        <ele>187.085</ele>
        <time>2011-06-22T16:52:33Z</time>
      </trkpt>
      <trkpt lat="60.92067" lon="15.120327">
        <ele>187.778</ele>
        <time>2011-06-22T16:52:37Z</time>
      </trkpt>
      <trkpt lat="60.921001" lon="15.120087">
        <ele>189.188</ele>
        <time>2011-06-22T16:52:45Z</time>
      </trkpt>
      <trkpt lat="60.921245" lon="15.119875">
        <ele>189.98</ele>
        <time>2011-06-22T16:52:51Z</time>
      </trkpt>
      <trkpt lat="60.921513" lon="15.119645">
        <ele>191.289</ele>
        <time>2011-06-22T16:52:58Z</time>
      </trkpt>
      <trkpt lat="60.921703" lon="15.1195">
        <ele>192.363</ele>
        <time>2011-06-22T16:53:03Z</time>
      </trkpt>
      <trkpt lat="60.921905" lon="15.119348">
        <ele>193.499</ele>
        <time>2011-06-22T16:53:08Z</time>
      </trkpt>
      <trkpt lat="60.92218" lon="15.119141">
        <ele>194.598</ele>
        <time>2011-06-22T16:53:15Z</time>
      </trkpt>
      <trkpt lat="60.922508" lon="15.118927">
        <ele>195.729</ele>
        <time>2011-06-22T16:53:23Z</time>
      </trkpt>
      <trkpt lat="60.922746" lon="15.118796">
        <ele>197.06</ele>
        <time>2011-06-22T16:53:29Z</time>
      </trkpt>
      <trkpt lat="60.922941" lon="15.118701">
        <ele>198.176</ele>
        <time>2011-06-22T16:53:34Z</time>
      </trkpt>
      <trkpt lat="60.923125" lon="15.118611">
        <ele>199.612</ele>
        <time>2011-06-22T16:53:40Z</time>
      </trkpt>
      <trkpt lat="60.923334" lon="15.118508">
        <ele>200.392</ele>
        <time>2011-06-22T16:53:46Z</time>
      </trkpt>
      <trkpt lat="60.923623" lon="15.118371">
        <ele>200.83</ele>
        <time>2011-06-22T16:53:53Z</time>
      </trkpt>
      <trkpt lat="60.923931" lon="15.118201">
        <ele>201.382</ele>
        <time>2011-06-22T16:54:02Z</time>
      </trkpt>
      <trkpt lat="60.924205" lon="15.11805">
        <ele>201.564</ele>
        <time>2011-06-22T16:54:12Z</time>
      </trkpt>
      <trkpt lat="60.924421" lon="15.117958">
        <ele>201.515</ele>
        <time>2011-06-22T16:54:18Z</time>
      </trkpt>
      <trkpt lat="60.924466" lon="15.117951">
        <ele>201.513</ele>
        <time>2011-06-22T16:54:19Z</time>
      </trkpt>
      <trkpt lat="60.924807" lon="15.117886">
        <ele>201.668</ele>
        <time>2011-06-22T16:54:26Z</time>
      </trkpt>
      <trkpt lat="60.925208" lon="15.117914">
        <ele>202.895</ele>
        <time>2011-06-22T16:54:34Z</time>
      </trkpt>
      <trkpt lat="60.925553" lon="15.118066">
        <ele>204.091</ele>
        <time>2011-06-22T16:54:41Z</time>
      </trkpt>
      <trkpt lat="60.925952" lon="15.118334">
        <ele>204.987</ele>
        <time>2011-06-22T16:54:49Z</time>
      </trkpt>
      <trkpt lat="60.926367" lon="15.118657">
        <ele>205.648</ele>
        <time>2011-06-22T16:54:57Z</time>
      </trkpt>
      <trkpt lat="60.926703" lon="15.119043">
        <ele>206.546</ele>
        <time>2011-06-22T16:55:04Z</time>
      </trkpt>
      <trkpt lat="60.926971" lon="15.119536">
        <ele>207.918</ele>
        <time>2011-06-22T16:55:11Z</time>
      </trkpt>
      <trkpt lat="60.92729" lon="15.120125">
        <ele>208.602</ele>
        <time>2011-06-22T16:55:19Z</time>
      </trkpt>
      <trkpt lat="60.927706" lon="15.120844">
        <ele>208.868</ele>
        <time>2011-06-22T16:55:29Z</time>
      </trkpt>
      <trkpt lat="60.927788" lon="15.120984">
        <ele>209.001</ele>
        <time>2011-06-22T16:55:31Z</time>
      </trkpt>
      <trkpt lat="60.927901" lon="15.121234">
        <ele>208.807</ele>
        <time>2011-06-22T16:55:34Z</time>
      </trkpt>
      <trkpt lat="60.928042" lon="15.121453">
        <ele>208.078</ele>
        <time>2011-06-22T16:55:37Z</time>
      </trkpt>
      <trkpt lat="60.928364" lon="15.122121">
        <ele>205.938</ele>
        <time>2011-06-22T16:55:44Z</time>
      </trkpt>
      <trkpt lat="60.928531" lon="15.122847">
        <ele>203.676</ele>
        <time>2011-06-22T16:55:49Z</time>
      </trkpt>
      <trkpt lat="60.928644" lon="15.123798">
        <ele>200.164</ele>
        <time>2011-06-22T16:55:54Z</time>
      </trkpt>
      <trkpt lat="60.928662" lon="15.123998">
        <ele>199.944</ele>
        <time>2011-06-22T16:55:55Z</time>
      </trkpt>
      <trkpt lat="60.928872" lon="15.125784">
        <ele>196.515</ele>
        <time>2011-06-22T16:56:04Z</time>
      </trkpt>
      <trkpt lat="60.929063" lon="15.127103">
        <ele>192.618</ele>
        <time>2011-06-22T16:56:10Z</time>
      </trkpt>
      <trkpt lat="60.929295" lon="15.12831">
        <ele>192.23</ele>
        <time>2011-06-22T16:56:16Z</time>
      </trkpt>
      <trkpt lat="60.929514" lon="15.12886">
        <ele>194.193</ele>
        <time>2011-06-22T16:56:20Z</time>
      </trkpt>
      <trkpt lat="60.929882" lon="15.129289">
        <ele>197.331</ele>
        <time>2011-06-22T16:56:26Z</time>
      </trkpt>
      <trkpt lat="60.929992" lon="15.129401">
        <ele>197.984</ele>
        <time>2011-06-22T16:56:28Z</time>
      </trkpt>
      <trkpt lat="60.930387" lon="15.129614">
        <ele>199.254</ele>
        <time>2011-06-22T16:56:35Z</time>
      </trkpt>
      <trkpt lat="60.930777" lon="15.129791">
        <ele>199.49</ele>
        <time>2011-06-22T16:56:42Z</time>
      </trkpt>
      <trkpt lat="60.93136" lon="15.130062">
        <ele>199.593</ele>
        <time>2011-06-22T16:56:52Z</time>
      </trkpt>
      <trkpt lat="60.931934" lon="15.130344">
        <ele>197.737</ele>
        <time>2011-06-22T16:57:01Z</time>
      </trkpt>
      <trkpt lat="60.932436" lon="15.130559">
        <ele>196.067</ele>
        <time>2011-06-22T16:57:08Z</time>
      </trkpt>
      <trkpt lat="60.932944" lon="15.130785">
        <ele>193.323</ele>
        <time>2011-06-22T16:57:14Z</time>
      </trkpt>
      <trkpt lat="60.933538" lon="15.131052">
        <ele>190.374</ele>
        <time>2011-06-22T16:57:20Z</time>
      </trkpt>
      <trkpt lat="60.934335" lon="15.131406">
        <ele>184.248</ele>
        <time>2011-06-22T16:57:27Z</time>
      </trkpt>
      <trkpt lat="60.935066" lon="15.131732">
        <ele>179.646</ele>
        <time>2011-06-22T16:57:33Z</time>
      </trkpt>
      <trkpt lat="60.935849" lon="15.132059">
        <ele>174.168</ele>
        <time>2011-06-22T16:57:39Z</time>
      </trkpt>
      <trkpt lat="60.9366" lon="15.132407">
        <ele>171.044</ele>
        <time>2011-06-22T16:57:45Z</time>
      </trkpt>
      <trkpt lat="60.936726" lon="15.132467">
        <ele>170.861</ele>
        <time>2011-06-22T16:57:46Z</time>
      </trkpt>
      <trkpt lat="60.937329" lon="15.132815">
        <ele>170.628</ele>
        <time>2011-06-22T16:57:51Z</time>
      </trkpt>
      <trkpt lat="60.938118" lon="15.133391">
        <ele>167.602</ele>
        <time>2011-06-22T16:57:58Z</time>
      </trkpt>
      <trkpt lat="60.938606" lon="15.1338">
        <ele>167.492</ele>
        <time>2011-06-22T16:58:03Z</time>
      </trkpt>
      <trkpt lat="60.938932" lon="15.134086">
        <ele>168.723</ele>
        <time>2011-06-22T16:58:07Z</time>
      </trkpt>
      <trkpt lat="60.939336" lon="15.134492">
        <ele>170.118</ele>
        <time>2011-06-22T16:58:13Z</time>
      </trkpt>
      <trkpt lat="60.939652" lon="15.134838">
        <ele>171.921</ele>
        <time>2011-06-22T16:58:19Z</time>
      </trkpt>
      <trkpt lat="60.939953" lon="15.13516">
        <ele>173.891</ele>
        <time>2011-06-22T16:58:25Z</time>
      </trkpt>
      <trkpt lat="60.940297" lon="15.135519">
        <ele>174.817</ele>
        <time>2011-06-22T16:58:32Z</time>
      </trkpt>
      <trkpt lat="60.9408" lon="15.136045">
        <ele>175.308</ele>
        <time>2011-06-22T16:58:42Z</time>
      </trkpt>
      <trkpt lat="60.941031" lon="15.136274">
        <ele>175.776</ele>
        <time>2011-06-22T16:58:47Z</time>
      </trkpt>
      <trkpt lat="60.941239" lon="15.136528">
        <ele>177.041</ele>
        <time>2011-06-22T16:58:53Z</time>
      </trkpt>
      <trkpt lat="60.941395" lon="15.136677">
        <ele>177.404</ele>
        <time>2011-06-22T16:58:57Z</time>
      </trkpt>
      <trkpt lat="60.941649" lon="15.136954">
        <ele>178.585</ele>
        <time>2011-06-22T16:59:03Z</time>
      </trkpt>
      <trkpt lat="60.941876" lon="15.137202">
        <ele>180.313</ele>
        <time>2011-06-22T16:59:09Z</time>
      </trkpt>
      <trkpt lat="60.942071" lon="15.137399">
        <ele>181.321</ele>
        <time>2011-06-22T16:59:14Z</time>
      </trkpt>
      <trkpt lat="60.942354" lon="15.1377">
        <ele>182.763</ele>
        <time>2011-06-22T16:59:21Z</time>
      </trkpt>
      <trkpt lat="60.94263" lon="15.138008">
        <ele>184.084</ele>
        <time>2011-06-22T16:59:28Z</time>
      </trkpt>
      <trkpt lat="60.942881" lon="15.138282">
        <ele>184.956</ele>
        <time>2011-06-22T16:59:34Z</time>
      </trkpt>
      <trkpt lat="60.943143" lon="15.138554">
        <ele>185.332</ele>
        <time>2011-06-22T16:59:40Z</time>
      </trkpt>
      <trkpt lat="60.94349" lon="15.138941">
        <ele>185.678</ele>
        <time>2011-06-22T16:59:48Z</time>
      </trkpt>
      <trkpt lat="60.943898" lon="15.139364">
        <ele>186.454</ele>
        <time>2011-06-22T16:59:57Z</time>
      </trkpt>
      <trkpt lat="60.944239" lon="15.139723">
        <ele>185.767</ele>
        <time>2011-06-22T17:00:04Z</time>
      </trkpt>
      <trkpt lat="60.944557" lon="15.140072">
        <ele>185.769</ele>
        <time>2011-06-22T17:00:10Z</time>
      </trkpt>
      <trkpt lat="60.944892" lon="15.140432">
        <ele>185.832</ele>
        <time>2011-06-22T17:00:16Z</time>
      </trkpt>
      <trkpt lat="60.945297" lon="15.140851">
        <ele>185.707</ele>
        <time>2011-06-22T17:00:23Z</time>
      </trkpt>
      <trkpt lat="60.945676" lon="15.141265">
        <ele>186.576</ele>
        <time>2011-06-22T17:00:30Z</time>
      </trkpt>
      <trkpt lat="60.946024" lon="15.141666">
        <ele>188.154</ele>
        <time>2011-06-22T17:00:37Z</time>
      </trkpt>
      <trkpt lat="60.946352" lon="15.142001">
        <ele>188.478</ele>
        <time>2011-06-22T17:00:43Z</time>
      </trkpt>
      <trkpt lat="60.946739" lon="15.142381">
        <ele>188.394</ele>
        <time>2011-06-22T17:00:50Z</time>
      </trkpt>
      <trkpt lat="60.947091" lon="15.142766">
        <ele>187.797</ele>
        <time>2011-06-22T17:00:56Z</time>
      </trkpt>
      <trkpt lat="60.94745" lon="15.143099">
        <ele>187.97</ele>
        <time>2011-06-22T17:01:02Z</time>
      </trkpt>
      <trkpt lat="60.947894" lon="15.143417">
        <ele>188.299</ele>
        <time>2011-06-22T17:01:09Z</time>
      </trkpt>
      <trkpt lat="60.948332" lon="15.143591">
        <ele>189.526</ele>
        <time>2011-06-22T17:01:16Z</time>
      </trkpt>
      <trkpt lat="60.948806" lon="15.143761">
        <ele>190.554</ele>
        <time>2011-06-22T17:01:24Z</time>
      </trkpt>
      <trkpt lat="60.949107" lon="15.143873">
        <ele>191.459</ele>
        <time>2011-06-22T17:01:30Z</time>
      </trkpt>
      <trkpt lat="60.949442" lon="15.144013">
        <ele>192.781</ele>
        <time>2011-06-22T17:01:37Z</time>
      </trkpt>
      <trkpt lat="60.949763" lon="15.144114">
        <ele>193.092</ele>
        <time>2011-06-22T17:01:43Z</time>
      </trkpt>
      <trkpt lat="60.950192" lon="15.14428">
        <ele>192.652</ele>
        <time>2011-06-22T17:01:50Z</time>
      </trkpt>
      <trkpt lat="60.950697" lon="15.144459">
        <ele>192.293</ele>
        <time>2011-06-22T17:01:58Z</time>
      </trkpt>
      <trkpt lat="60.951164" lon="15.14464">
        <ele>191.755</ele>
        <time>2011-06-22T17:02:05Z</time>
      </trkpt>
      <trkpt lat="60.951566" lon="15.144794">
        <ele>192.066</ele>
        <time>2011-06-22T17:02:11Z</time>
      </trkpt>
      <trkpt lat="60.951947" lon="15.144923">
        <ele>192.533</ele>
        <time>2011-06-22T17:02:17Z</time>
      </trkpt>
      <trkpt lat="60.952403" lon="15.145043">
        <ele>191.616</ele>
        <time>2011-06-22T17:02:24Z</time>
      </trkpt>
      <trkpt lat="60.952816" lon="15.144922">
        <ele>190.618</ele>
        <time>2011-06-22T17:02:30Z</time>
      </trkpt>
      <trkpt lat="60.953287" lon="15.14459">
        <ele>189.143</ele>
        <time>2011-06-22T17:02:37Z</time>
      </trkpt>
      <trkpt lat="60.953746" lon="15.144224">
        <ele>189.09</ele>
        <time>2011-06-22T17:02:44Z</time>
      </trkpt>
      <trkpt lat="60.954249" lon="15.143876">
        <ele>189.232</ele>
        <time>2011-06-22T17:02:52Z</time>
      </trkpt>
      <trkpt lat="60.954777" lon="15.143481">
        <ele>190.324</ele>
        <time>2011-06-22T17:03:01Z</time>
      </trkpt>
      <trkpt lat="60.955166" lon="15.143182">
        <ele>190.732</ele>
        <time>2011-06-22T17:03:08Z</time>
      </trkpt>
      <trkpt lat="60.955576" lon="15.142889">
        <ele>191.516</ele>
        <time>2011-06-22T17:03:16Z</time>
      </trkpt>
      <trkpt lat="60.955626" lon="15.142857">
        <ele>191.59</ele>
        <time>2011-06-22T17:03:17Z</time>
      </trkpt>
      <trkpt lat="60.955723" lon="15.142782">
        <ele>191.83</ele>
        <time>2011-06-22T17:03:19Z</time>
      </trkpt>
      <trkpt lat="60.956052" lon="15.142557">
        <ele>192.921</ele>
        <time>2011-06-22T17:03:26Z</time>
      </trkpt>
      <trkpt lat="60.956389" lon="15.142309">
        <ele>193.062</ele>
        <time>2011-06-22T17:03:32Z</time>
      </trkpt>
      <trkpt lat="60.956762" lon="15.142021">
        <ele>194.176</ele>
        <time>2011-06-22T17:03:39Z</time>
      </trkpt>
      <trkpt lat="60.957132" lon="15.141754">
        <ele>194.923</ele>
        <time>2011-06-22T17:03:46Z</time>
      </trkpt>
      <trkpt lat="60.957506" lon="15.141486">
        <ele>195.91</ele>
        <time>2011-06-22T17:03:53Z</time>
      </trkpt>
      <trkpt lat="60.957815" lon="15.141276">
        <ele>196.835</ele>
        <time>2011-06-22T17:03:59Z</time>
      </trkpt>
      <trkpt lat="60.958178" lon="15.14104">
        <ele>198.194</ele>
        <time>2011-06-22T17:04:06Z</time>
      </trkpt>
      <trkpt lat="60.958614" lon="15.14082">
        <ele>198.02</ele>
        <time>2011-06-22T17:04:14Z</time>
      </trkpt>
      <trkpt lat="60.959004" lon="15.140611">
        <ele>198.672</ele>
        <time>2011-06-22T17:04:21Z</time>
      </trkpt>
      <trkpt lat="60.959332" lon="15.140437">
        <ele>199.418</ele>
        <time>2011-06-22T17:04:27Z</time>
      </trkpt>
      <trkpt lat="60.95965" lon="15.140269">
        <ele>200.211</ele>
        <time>2011-06-22T17:04:33Z</time>
      </trkpt>
      <trkpt lat="60.96008" lon="15.140033">
        <ele>201.378</ele>
        <time>2011-06-22T17:04:41Z</time>
      </trkpt>
      <trkpt lat="60.960188" lon="15.139979">
        <ele>201.571</ele>
        <time>2011-06-22T17:04:43Z</time>
      </trkpt>
      <trkpt lat="60.960444" lon="15.139869">
        <ele>202.323</ele>
        <time>2011-06-22T17:04:48Z</time>
      </trkpt>
      <trkpt lat="60.960584" lon="15.13976">
        <ele>202.837</ele>
        <time>2011-06-22T17:04:51Z</time>
      </trkpt>
      <trkpt lat="60.960731" lon="15.139677">
        <ele>203.151</ele>
        <time>2011-06-22T17:04:54Z</time>
      </trkpt>
      <trkpt lat="60.960877" lon="15.139585">
        <ele>203.651</ele>
        <time>2011-06-22T17:04:57Z</time>
      </trkpt>
      <trkpt lat="60.961023" lon="15.139519">
        <ele>203.673</ele>
        <time>2011-06-22T17:05:00Z</time>
      </trkpt>
      <trkpt lat="60.961412" lon="15.139375">
        <ele>205.044</ele>
        <time>2011-06-22T17:05:08Z</time>
      </trkpt>
      <trkpt lat="60.961462" lon="15.139345">
        <ele>205.274</ele>
        <time>2011-06-22T17:05:09Z</time>
      </trkpt>
      <trkpt lat="60.961647" lon="15.139262">
        <ele>206.271</ele>
        <time>2011-06-22T17:05:13Z</time>
      </trkpt>
      <trkpt lat="60.961958" lon="15.139106">
        <ele>207.561</ele>
        <time>2011-06-22T17:05:20Z</time>
      </trkpt>
      <trkpt lat="60.962131" lon="15.138995">
        <ele>208.335</ele>
        <time>2011-06-22T17:05:24Z</time>
      </trkpt>
      <trkpt lat="60.96222" lon="15.138953">
        <ele>208.484</ele>
        <time>2011-06-22T17:05:26Z</time>
      </trkpt>
      <trkpt lat="60.962496" lon="15.138817">
        <ele>208.509</ele>
        <time>2011-06-22T17:05:32Z</time>
      </trkpt>
      <trkpt lat="60.962771" lon="15.138679">
        <ele>208.79</ele>
        <time>2011-06-22T17:05:38Z</time>
      </trkpt>
      <trkpt lat="60.962951" lon="15.138553">
        <ele>209.254</ele>
        <time>2011-06-22T17:05:42Z</time>
      </trkpt>
      <trkpt lat="60.963233" lon="15.138338">
        <ele>211.253</ele>
        <time>2011-06-22T17:05:49Z</time>
      </trkpt>
      <trkpt lat="60.96339" lon="15.1382">
        <ele>212.136</ele>
        <time>2011-06-22T17:05:53Z</time>
      </trkpt>
      <trkpt lat="60.963644" lon="15.137956">
        <ele>212.688</ele>
        <time>2011-06-22T17:05:59Z</time>
      </trkpt>
      <trkpt lat="60.963969" lon="15.137624">
        <ele>213.907</ele>
        <time>2011-06-22T17:06:07Z</time>
      </trkpt>
      <trkpt lat="60.964205" lon="15.137394">
        <ele>215.339</ele>
        <time>2011-06-22T17:06:13Z</time>
      </trkpt>
      <trkpt lat="60.964506" lon="15.13704">
        <ele>216.354</ele>
        <time>2011-06-22T17:06:21Z</time>
      </trkpt>
      <trkpt lat="60.964758" lon="15.1367">
        <ele>216.835</ele>
        <time>2011-06-22T17:06:28Z</time>
      </trkpt>
      <trkpt lat="60.964969" lon="15.136333">
        <ele>218.203</ele>
        <time>2011-06-22T17:06:35Z</time>
      </trkpt>
      <trkpt lat="60.964925" lon="15.136101">
        <ele>218.709</ele>
        <time>2011-06-22T17:06:39Z</time>
      </trkpt>
      <trkpt lat="60.96467" lon="15.135779">
        <ele>218.131</ele>
        <time>2011-06-22T17:06:46Z</time>
      </trkpt>
      <trkpt lat="60.96437" lon="15.135461">
        <ele>216.156</ele>
        <time>2011-06-22T17:06:52Z</time>
      </trkpt>
      <trkpt lat="60.964038" lon="15.13496">
        <ele>214.982</ele>
        <time>2011-06-22T17:06:58Z</time>
      </trkpt>
      <trkpt lat="60.963771" lon="15.134264">
        <ele>214.2</ele>
        <time>2011-06-22T17:07:04Z</time>
      </trkpt>
      <trkpt lat="60.963365" lon="15.133006">
        <ele>213.341</ele>
        <time>2011-06-22T17:07:14Z</time>
      </trkpt>
      <trkpt lat="60.963056" lon="15.132017">
        <ele>212.748</ele>
        <time>2011-06-22T17:07:22Z</time>
      </trkpt>
      <trkpt lat="60.96267" lon="15.130781">
        <ele>212.354</ele>
        <time>2011-06-22T17:07:32Z</time>
      </trkpt>
      <trkpt lat="60.96229" lon="15.129672">
        <ele>210.814</ele>
        <time>2011-06-22T17:07:41Z</time>
      </trkpt>
      <trkpt lat="60.962184" lon="15.129438">
        <ele>210.015</ele>
        <time>2011-06-22T17:07:43Z</time>
      </trkpt>
      <trkpt lat="60.961801" lon="15.12869">
        <ele>210.134</ele>
        <time>2011-06-22T17:07:50Z</time>
      </trkpt>
      <trkpt lat="60.961473" lon="15.128064">
        <ele>208.828</ele>
        <time>2011-06-22T17:07:56Z</time>
      </trkpt>
      <trkpt lat="60.960971" lon="15.127126">
        <ele>209.112</ele>
        <time>2011-06-22T17:08:05Z</time>
      </trkpt>
      <trkpt lat="60.960573" lon="15.126363">
        <ele>207.615</ele>
        <time>2011-06-22T17:08:12Z</time>
      </trkpt>
      <trkpt lat="60.960142" lon="15.125531">
        <ele>204.885</ele>
        <time>2011-06-22T17:08:19Z</time>
      </trkpt>
      <trkpt lat="60.959862" lon="15.124996">
        <ele>202.901</ele>
        <time>2011-06-22T17:08:23Z</time>
      </trkpt>
      <trkpt lat="60.959322" lon="15.12403">
        <ele>197.732</ele>
        <time>2011-06-22T17:08:30Z</time>
      </trkpt>
      <trkpt lat="60.958931" lon="15.123526">
        <ele>195.487</ele>
        <time>2011-06-22T17:08:34Z</time>
      </trkpt>
      <trkpt lat="60.958226" lon="15.122631">
        <ele>189.78</ele>
        <time>2011-06-22T17:08:41Z</time>
      </trkpt>
      <trkpt lat="60.95784" lon="15.122154">
        <ele>187.655</ele>
        <time>2011-06-22T17:08:45Z</time>
      </trkpt>
      <trkpt lat="60.957377" lon="15.121574">
        <ele>185.222</ele>
        <time>2011-06-22T17:08:50Z</time>
      </trkpt>
      <trkpt lat="60.956671" lon="15.120787">
        <ele>184.814</ele>
        <time>2011-06-22T17:08:57Z</time>
      </trkpt>
      <trkpt lat="60.956157" lon="15.120371">
        <ele>184.088</ele>
        <time>2011-06-22T17:09:02Z</time>
      </trkpt>
      <trkpt lat="60.955646" lon="15.120193">
        <ele>182.905</ele>
        <time>2011-06-22T17:09:07Z</time>
      </trkpt>
      <trkpt lat="60.955546" lon="15.120167">
        <ele>182.635</ele>
        <time>2011-06-22T17:09:08Z</time>
      </trkpt>
      <trkpt lat="60.95467" lon="15.120009">
        <ele>181.401</ele>
        <time>2011-06-22T17:09:17Z</time>
      </trkpt>
      <trkpt lat="60.954195" lon="15.120103">
        <ele>181.243</ele>
        <time>2011-06-22T17:09:22Z</time>
      </trkpt>
      <trkpt lat="60.953284" lon="15.120522">
        <ele>179.293</ele>
        <time>2011-06-22T17:09:32Z</time>
      </trkpt>
      <trkpt lat="60.952666" lon="15.120754">
        <ele>179.046</ele>
        <time>2011-06-22T17:09:39Z</time>
      </trkpt>
      <trkpt lat="60.952582" lon="15.120776">
        <ele>179.022</ele>
        <time>2011-06-22T17:09:40Z</time>
      </trkpt>
      <trkpt lat="60.952123" lon="15.120705">
        <ele>178.335</ele>
        <time>2011-06-22T17:09:46Z</time>
      </trkpt>
      <trkpt lat="60.952047" lon="15.120665">
        <ele>177.869</ele>
        <time>2011-06-22T17:09:47Z</time>
      </trkpt>
      <trkpt lat="60.951743" lon="15.120485">
        <ele>176.102</ele>
        <time>2011-06-22T17:09:51Z</time>
      </trkpt>
      <trkpt lat="60.951587" lon="15.120397">
        <ele>175.415</ele>
        <time>2011-06-22T17:09:53Z</time>
      </trkpt>
      <trkpt lat="60.95151" lon="15.120347">
        <ele>175.309</ele>
        <time>2011-06-22T17:09:54Z</time>
      </trkpt>
      <trkpt lat="60.950977" lon="15.119784">
        <ele>174.827</ele>
        <time>2011-06-22T17:10:01Z</time>
      </trkpt>
      <trkpt lat="60.950518" lon="15.119092">
        <ele>173.211</ele>
        <time>2011-06-22T17:10:08Z</time>
      </trkpt>
      <trkpt lat="60.950051" lon="15.118367">
        <ele>172.753</ele>
        <time>2011-06-22T17:10:16Z</time>
      </trkpt>
      <trkpt lat="60.949612" lon="15.117728">
        <ele>173.964</ele>
        <time>2011-06-22T17:10:24Z</time>
      </trkpt>
      <trkpt lat="60.949317" lon="15.117184">
        <ele>173.383</ele>
        <time>2011-06-22T17:10:30Z</time>
      </trkpt>
      <trkpt lat="60.949066" lon="15.116522">
        <ele>173.209</ele>
        <time>2011-06-22T17:10:36Z</time>
      </trkpt>
      <trkpt lat="60.948878" lon="15.115829">
        <ele>173.51</ele>
        <time>2011-06-22T17:10:42Z</time>
      </trkpt>
      <trkpt lat="60.94864" lon="15.114911">
        <ele>172.925</ele>
        <time>2011-06-22T17:10:50Z</time>
      </trkpt>
      <trkpt lat="60.948385" lon="15.114002">
        <ele>172.81</ele>
        <time>2011-06-22T17:10:58Z</time>
      </trkpt>
      <trkpt lat="60.948188" lon="15.113259">
        <ele>173.417</ele>
        <time>2011-06-22T17:11:05Z</time>
      </trkpt>
      <trkpt lat="60.947977" lon="15.112565">
        <ele>173.995</ele>
        <time>2011-06-22T17:11:12Z</time>
      </trkpt>
      <trkpt lat="60.947835" lon="15.112051">
        <ele>174.165</ele>
        <time>2011-06-22T17:11:18Z</time>
      </trkpt>
      <trkpt lat="60.947679" lon="15.111586">
        <ele>175.086</ele>
        <time>2011-06-22T17:11:25Z</time>
      </trkpt>
      <trkpt lat="60.947524" lon="15.111129">
        <ele>176.092</ele>
        <time>2011-06-22T17:11:32Z</time>
      </trkpt>
      <trkpt lat="60.947346" lon="15.110803">
        <ele>176.85</ele>
        <time>2011-06-22T17:11:38Z</time>
      </trkpt>
      <trkpt lat="60.947286" lon="15.110605">
        <ele>177.313</ele>
        <time>2011-06-22T17:11:42Z</time>
      </trkpt>
      <trkpt lat="60.947148" lon="15.110503">
        <ele>177.234</ele>
        <time>2011-06-22T17:11:46Z</time>
      </trkpt>
      <trkpt lat="60.947024" lon="15.11055">
        <ele>177.08</ele>
        <time>2011-06-22T17:11:49Z</time>
      </trkpt>
      <trkpt lat="60.946885" lon="15.110577">
        <ele>176.747</ele>
        <time>2011-06-22T17:11:52Z</time>
      </trkpt>
      <trkpt lat="60.946492" lon="15.110656">
        <ele>176.163</ele>
        <time>2011-06-22T17:12:00Z</time>
      </trkpt>
      <trkpt lat="60.946139" lon="15.110638">
        <ele>175.385</ele>
        <time>2011-06-22T17:12:07Z</time>
      </trkpt>
      <trkpt lat="60.945779" lon="15.110579">
        <ele>175.559</ele>
        <time>2011-06-22T17:12:14Z</time>
      </trkpt>
      <trkpt lat="60.945405" lon="15.110533">
        <ele>175.809</ele>
        <time>2011-06-22T17:12:21Z</time>
      </trkpt>
      <trkpt lat="60.945141" lon="15.110492">
        <ele>175.444</ele>
        <time>2011-06-22T17:12:26Z</time>
      </trkpt>
      <trkpt lat="60.944867" lon="15.110468">
        <ele>175.012</ele>
        <time>2011-06-22T17:12:31Z</time>
      </trkpt>
      <trkpt lat="60.944534" lon="15.110449">
        <ele>174.964</ele>
        <time>2011-06-22T17:12:37Z</time>
      </trkpt>
      <trkpt lat="60.94448" lon="15.110462">
        <ele>175.001</ele>
        <time>2011-06-22T17:12:38Z</time>
      </trkpt>
      <trkpt lat="60.944096" lon="15.110422">
        <ele>174.846</ele>
        <time>2011-06-22T17:12:45Z</time>
      </trkpt>
      <trkpt lat="60.943703" lon="15.110362">
        <ele>175.45</ele>
        <time>2011-06-22T17:12:52Z</time>
      </trkpt>
      <trkpt lat="60.94347" lon="15.110317">
        <ele>175.746</ele>
        <time>2011-06-22T17:12:56Z</time>
      </trkpt>
      <trkpt lat="60.943133" lon="15.110181">
        <ele>176.196</ele>
        <time>2011-06-22T17:13:03Z</time>
      </trkpt>
      <trkpt lat="60.943092" lon="15.110157">
        <ele>176.239</ele>
        <time>2011-06-22T17:13:04Z</time>
      </trkpt>
      <trkpt lat="60.942664" lon="15.109805">
        <ele>175.773</ele>
        <time>2011-06-22T17:13:13Z</time>
      </trkpt>
      <trkpt lat="60.942325" lon="15.109404">
        <ele>176.299</ele>
        <time>2011-06-22T17:13:20Z</time>
      </trkpt>
      <trkpt lat="60.941998" lon="15.108894">
        <ele>175.701</ele>
        <time>2011-06-22T17:13:27Z</time>
      </trkpt>
      <trkpt lat="60.941628" lon="15.108152">
        <ele>175.536</ele>
        <time>2011-06-22T17:13:36Z</time>
      </trkpt>
      <trkpt lat="60.941218" lon="15.107306">
        <ele>175.984</ele>
        <time>2011-06-22T17:13:46Z</time>
      </trkpt>
      <trkpt lat="60.940884" lon="15.106593">
        <ele>175.513</ele>
        <time>2011-06-22T17:13:54Z</time>
      </trkpt>
      <trkpt lat="60.940428" lon="15.105669">
        <ele>175.173</ele>
        <time>2011-06-22T17:14:05Z</time>
      </trkpt>
      <trkpt lat="60.94004" lon="15.104892">
        <ele>174.332</ele>
        <time>2011-06-22T17:14:14Z</time>
      </trkpt>
      <trkpt lat="60.939744" lon="15.104297">
        <ele>173.672</ele>
        <time>2011-06-22T17:14:21Z</time>
      </trkpt>
      <trkpt lat="60.939362" lon="15.103604">
        <ele>173.004</ele>
        <time>2011-06-22T17:14:29Z</time>
      </trkpt>
      <trkpt lat="60.939021" lon="15.103146">
        <ele>172.804</ele>
        <time>2011-06-22T17:14:35Z</time>
      </trkpt>
      <trkpt lat="60.938584" lon="15.102736">
        <ele>171.018</ele>
        <time>2011-06-22T17:14:42Z</time>
      </trkpt>
      <trkpt lat="60.938188" lon="15.102537">
        <ele>170.369</ele>
        <time>2011-06-22T17:14:48Z</time>
      </trkpt>
      <trkpt lat="60.937675" lon="15.102295">
        <ele>170.576</ele>
        <time>2011-06-22T17:14:56Z</time>
      </trkpt>
      <trkpt lat="60.937104" lon="15.102001">
        <ele>170.768</ele>
        <time>2011-06-22T17:15:05Z</time>
      </trkpt>
      <trkpt lat="60.936481" lon="15.101638">
        <ele>170.689</ele>
        <time>2011-06-22T17:15:15Z</time>
      </trkpt>
      <trkpt lat="60.936075" lon="15.101388">
        <ele>170.337</ele>
        <time>2011-06-22T17:15:22Z</time>
      </trkpt>
      <trkpt lat="60.935669" lon="15.10111">
        <ele>170.414</ele>
        <time>2011-06-22T17:15:29Z</time>
      </trkpt>
      <trkpt lat="60.935224" lon="15.100752">
        <ele>170.197</ele>
        <time>2011-06-22T17:15:37Z</time>
      </trkpt>
      <trkpt lat="60.934933" lon="15.100518">
        <ele>170.099</ele>
        <time>2011-06-22T17:15:42Z</time>
      </trkpt>
      <trkpt lat="60.934584" lon="15.100217">
        <ele>170.501</ele>
        <time>2011-06-22T17:15:48Z</time>
      </trkpt>
      <trkpt lat="60.934262" lon="15.099918">
        <ele>171.017</ele>
        <time>2011-06-22T17:15:54Z</time>
      </trkpt>
      <trkpt lat="60.933803" lon="15.09949">
        <ele>171.038</ele>
        <time>2011-06-22T17:16:02Z</time>
      </trkpt>
      <trkpt lat="60.933418" lon="15.099024">
        <ele>170.487</ele>
        <time>2011-06-22T17:16:09Z</time>
      </trkpt>
      <trkpt lat="60.932967" lon="15.098442">
        <ele>170.975</ele>
        <time>2011-06-22T17:16:18Z</time>
      </trkpt>
      <trkpt lat="60.932617" lon="15.097961">
        <ele>170.961</ele>
        <time>2011-06-22T17:16:25Z</time>
      </trkpt>
      <trkpt lat="60.932208" lon="15.097357">
        <ele>171.026</ele>
        <time>2011-06-22T17:16:33Z</time>
      </trkpt>
      <trkpt lat="60.931684" lon="15.096597">
        <ele>170.616</ele>
        <time>2011-06-22T17:16:43Z</time>
      </trkpt>
      <trkpt lat="60.931219" lon="15.095908">
        <ele>170.511</ele>
        <time>2011-06-22T17:16:52Z</time>
      </trkpt>
      <trkpt lat="60.930947" lon="15.095516">
        <ele>170.562</ele>
        <time>2011-06-22T17:16:57Z</time>
      </trkpt>
      <trkpt lat="60.930699" lon="15.095366">
        <ele>171.104</ele>
        <time>2011-06-22T17:17:01Z</time>
      </trkpt>
      <trkpt lat="60.930638" lon="15.095373">
        <ele>171.319</ele>
        <time>2011-06-22T17:17:02Z</time>
      </trkpt>
      <trkpt lat="60.930372" lon="15.095487">
        <ele>172.494</ele>
        <time>2011-06-22T17:17:07Z</time>
      </trkpt>
      <trkpt lat="60.930074" lon="15.095772">
        <ele>174.285</ele>
        <time>2011-06-22T17:17:14Z</time>
      </trkpt>
      <trkpt lat="60.929772" lon="15.095909">
        <ele>175.273</ele>
        <time>2011-06-22T17:17:21Z</time>
      </trkpt>
      <trkpt lat="60.929728" lon="15.095934">
        <ele>175.384</ele>
        <time>2011-06-22T17:17:22Z</time>
      </trkpt>
      <trkpt lat="60.92959" lon="15.096041">
        <ele>176.108</ele>
        <time>2011-06-22T17:17:25Z</time>
      </trkpt>
      <trkpt lat="60.929349" lon="15.096355">
        <ele>177.41</ele>
        <time>2011-06-22T17:17:31Z</time>
      </trkpt>
      <trkpt lat="60.92904" lon="15.096663">
        <ele>177.829</ele>
        <time>2011-06-22T17:17:39Z</time>
      </trkpt>
      <trkpt lat="60.92866" lon="15.097025">
        <ele>177.653</ele>
        <time>2011-06-22T17:17:47Z</time>
      </trkpt>
      <trkpt lat="60.928204" lon="15.097479">
        <ele>177.958</ele>
        <time>2011-06-22T17:17:57Z</time>
      </trkpt>
      <trkpt lat="60.927777" lon="15.097685">
        <ele>177.15</ele>
        <time>2011-06-22T17:18:05Z</time>
      </trkpt>
      <trkpt lat="60.927408" lon="15.097652">
        <ele>175.551</ele>
        <time>2011-06-22T17:18:11Z</time>
      </trkpt>
      <trkpt lat="60.927109" lon="15.097468">
        <ele>175.166</ele>
        <time>2011-06-22T17:18:16Z</time>
      </trkpt>
      <trkpt lat="60.926714" lon="15.096929">
        <ele>174.172</ele>
        <time>2011-06-22T17:18:24Z</time>
      </trkpt>
      <trkpt lat="60.926356" lon="15.096318">
        <ele>172.393</ele>
        <time>2011-06-22T17:18:31Z</time>
      </trkpt>
      <trkpt lat="60.925896" lon="15.095521">
        <ele>169.314</ele>
        <time>2011-06-22T17:18:39Z</time>
      </trkpt>
      <trkpt lat="60.925837" lon="15.095415">
        <ele>169.04</ele>
        <time>2011-06-22T17:18:40Z</time>
      </trkpt>
      <trkpt lat="60.92547" lon="15.094804">
        <ele>168.516</ele>
        <time>2011-06-22T17:18:46Z</time>
      </trkpt>
      <trkpt lat="60.924946" lon="15.093876">
        <ele>168.144</ele>
        <time>2011-06-22T17:18:55Z</time>
      </trkpt>
      <trkpt lat="60.924609" lon="15.093153">
        <ele>168.119</ele>
        <time>2011-06-22T17:19:02Z</time>
      </trkpt>
      <trkpt lat="60.924321" lon="15.092404">
        <ele>168.294</ele>
        <time>2011-06-22T17:19:09Z</time>
      </trkpt>
      <trkpt lat="60.924159" lon="15.092015">
        <ele>169.548</ele>
        <time>2011-06-22T17:19:13Z</time>
      </trkpt>
      <trkpt lat="60.923955" lon="15.091459">
        <ele>171.251</ele>
        <time>2011-06-22T17:19:19Z</time>
      </trkpt>
      <trkpt lat="60.923787" lon="15.091053">
        <ele>172.783</ele>
        <time>2011-06-22T17:19:24Z</time>
      </trkpt>
      <trkpt lat="60.923605" lon="15.090586">
        <ele>174.069</ele>
        <time>2011-06-22T17:19:30Z</time>
      </trkpt>
      <trkpt lat="60.923375" lon="15.090046">
        <ele>173.47</ele>
        <time>2011-06-22T17:19:36Z</time>
      </trkpt>
      <trkpt lat="60.923039" lon="15.089273">
        <ele>171.154</ele>
        <time>2011-06-22T17:19:43Z</time>
      </trkpt>
      <trkpt lat="60.922944" lon="15.089046">
        <ele>171.15</ele>
        <time>2011-06-22T17:19:45Z</time>
      </trkpt>
      <trkpt lat="60.922704" lon="15.088681">
        <ele>170.472</ele>
        <time>2011-06-22T17:19:49Z</time>
      </trkpt>
      <trkpt lat="60.922486" lon="15.088494">
        <ele>169.689</ele>
        <time>2011-06-22T17:19:52Z</time>
      </trkpt>
      <trkpt lat="60.922331" lon="15.088423">
        <ele>169.3</ele>
        <time>2011-06-22T17:19:54Z</time>
      </trkpt>
      <trkpt lat="60.921922" lon="15.088434">
        <ele>168.342</ele>
        <time>2011-06-22T17:19:59Z</time>
      </trkpt>
      <trkpt lat="60.921445" lon="15.088718">
        <ele>167.479</ele>
        <time>2011-06-22T17:20:05Z</time>
      </trkpt>
      <trkpt lat="60.920833" lon="15.089234">
        <ele>165.061</ele>
        <time>2011-06-22T17:20:12Z</time>
      </trkpt>
      <trkpt lat="60.920155" lon="15.089751">
        <ele>163.662</ele>
        <time>2011-06-22T17:20:20Z</time>
      </trkpt>
      <trkpt lat="60.919687" lon="15.089948">
        <ele>164.073</ele>
        <time>2011-06-22T17:20:26Z</time>
      </trkpt>
      <trkpt lat="60.919055" lon="15.09006">
        <ele>164.119</ele>
        <time>2011-06-22T17:20:34Z</time>
      </trkpt>
      <trkpt lat="60.918618" lon="15.090117">
        <ele>163.938</ele>
        <time>2011-06-22T17:20:40Z</time>
      </trkpt>
      <trkpt lat="60.918244" lon="15.090243">
        <ele>164.426</ele>
        <time>2011-06-22T17:20:46Z</time>
      </trkpt>
      <trkpt lat="60.918079" lon="15.090338">
        <ele>164.791</ele>
        <time>2011-06-22T17:20:49Z</time>
      </trkpt>
      <trkpt lat="60.917792" lon="15.090606">
        <ele>166.375</ele>
        <time>2011-06-22T17:20:55Z</time>
      </trkpt>
      <trkpt lat="60.917588" lon="15.090835">
        <ele>168.382</ele>
        <time>2011-06-22T17:21:00Z</time>
      </trkpt>
      <trkpt lat="60.917391" lon="15.091123">
        <ele>169.937</ele>
        <time>2011-06-22T17:21:06Z</time>
      </trkpt>
      <trkpt lat="60.917345" lon="15.091243">
        <ele>170.27</ele>
        <time>2011-06-22T17:21:08Z</time>
      </trkpt>
      <trkpt lat="60.917458" lon="15.091182">
        <ele>170.466</ele>
        <time>2011-06-22T17:21:11Z</time>
      </trkpt>
      <trkpt lat="60.917501" lon="15.091002">
        <ele>170.37</ele>
        <time>2011-06-22T17:21:14Z</time>
      </trkpt>
      <trkpt lat="60.917501" lon="15.090868">
        <ele>170.525</ele>
        <time>2011-06-22T17:21:18Z</time>
      </trkpt>
      <trkpt lat="60.917498" lon="15.090955">
        <ele>170.611</ele>
        <time>2011-06-22T17:21:21Z</time>
      </trkpt>
      <trkpt lat="60.917425" lon="15.09111">
        <ele>170.82</ele>
        <time>2011-06-22T17:21:26Z</time>
      </trkpt>
      <trkpt lat="60.917409" lon="15.091161">
        <ele>170.805</ele>
        <time>2011-06-22T17:21:28Z</time>
      </trkpt>
      <trkpt lat="60.91746" lon="15.091128">
        <ele>170.645</ele>
        <time>2011-06-22T17:21:33Z</time>
      </trkpt>
      <trkpt lat="60.917446" lon="15.091031">
        <ele>170.617</ele>
        <time>2011-06-22T17:21:37Z</time>
      </trkpt>
      <trkpt lat="60.917453" lon="15.091006">
        <ele>170.591</ele>
        <time>2011-06-22T17:21:38Z</time>
      </trkpt>
      <trkpt lat="60.91747" lon="15.090949">
        <ele>170.578</ele>
        <time>2011-06-22T17:21:40Z</time>
      </trkpt>
      <trkpt lat="60.917418" lon="15.090765">
        <ele>170.298</ele>
        <time>2011-06-22T17:21:45Z</time>
      </trkpt>
      <trkpt lat="60.917397" lon="15.090515">
        <ele>169.783</ele>
        <time>2011-06-22T17:21:50Z</time>
      </trkpt>
      <trkpt lat="60.917372" lon="15.090064">
        <ele>169.049</ele>
        <time>2011-06-22T17:21:56Z</time>
      </trkpt>
      <trkpt lat="60.917358" lon="15.089369">
        <ele>166.943</ele>
        <time>2011-06-22T17:22:02Z</time>
      </trkpt>
      <trkpt lat="60.917346" lon="15.088495">
        <ele>163.966</ele>
        <time>2011-06-22T17:22:08Z</time>
      </trkpt>
      <trkpt lat="60.917383" lon="15.087656">
        <ele>160.237</ele>
        <time>2011-06-22T17:22:13Z</time>
      </trkpt>
      <trkpt lat="60.917456" lon="15.087146">
        <ele>158.703</ele>
        <time>2011-06-22T17:22:16Z</time>
      </trkpt>
      <trkpt lat="60.917496" lon="15.086796">
        <ele>158.129</ele>
        <time>2011-06-22T17:22:18Z</time>
      </trkpt>
      <trkpt lat="60.917503" lon="15.085834">
        <ele>159.262</ele>
        <time>2011-06-22T17:22:24Z</time>
      </trkpt>
      <trkpt lat="60.917527" lon="15.085469">
        <ele>160.516</ele>
        <time>2011-06-22T17:22:27Z</time>
      </trkpt>
      <trkpt lat="60.917551" lon="15.084891">
        <ele>161.398</ele>
        <time>2011-06-22T17:22:32Z</time>
      </trkpt>
      <trkpt lat="60.917537" lon="15.08414">
        <ele>162.015</ele>
        <time>2011-06-22T17:22:38Z</time>
      </trkpt>
      <trkpt lat="60.917516" lon="15.083735">
        <ele>161.711</ele>
        <time>2011-06-22T17:22:41Z</time>
      </trkpt>
      <trkpt lat="60.917501" lon="15.082965">
        <ele>162.475</ele>
        <time>2011-06-22T17:22:47Z</time>
      </trkpt>
      <trkpt lat="60.917483" lon="15.082367">
        <ele>163.38</ele>
        <time>2011-06-22T17:22:52Z</time>
      </trkpt>
      <trkpt lat="60.917488" lon="15.08188">
        <ele>163.388</ele>
        <time>2011-06-22T17:22:56Z</time>
      </trkpt>
      <trkpt lat="60.917535" lon="15.081211">
        <ele>162.625</ele>
        <time>2011-06-22T17:23:01Z</time>
      </trkpt>
      <trkpt lat="60.917756" lon="15.080179">
        <ele>161.936</ele>
        <time>2011-06-22T17:23:09Z</time>
      </trkpt>
      <trkpt lat="60.917947" lon="15.079252">
        <ele>161.7</ele>
        <time>2011-06-22T17:23:17Z</time>
      </trkpt>
      <trkpt lat="60.918002" lon="15.078487">
        <ele>161.465</ele>
        <time>2011-06-22T17:23:23Z</time>
      </trkpt>
      <trkpt lat="60.918022" lon="15.077479">
        <ele>161.362</ele>
        <time>2011-06-22T17:23:31Z</time>
      </trkpt>
      <trkpt lat="60.917982" lon="15.076348">
        <ele>161.405</ele>
        <time>2011-06-22T17:23:40Z</time>
      </trkpt>
      <trkpt lat="60.917949" lon="15.0761">
        <ele>161.223</ele>
        <time>2011-06-22T17:23:42Z</time>
      </trkpt>
      <trkpt lat="60.917788" lon="15.075527">
        <ele>159.999</ele>
        <time>2011-06-22T17:23:47Z</time>
      </trkpt>
      <trkpt lat="60.917701" lon="15.07535">
        <ele>159.823</ele>
        <time>2011-06-22T17:23:49Z</time>
      </trkpt>
      <trkpt lat="60.917369" lon="15.074784">
        <ele>158.549</ele>
        <time>2011-06-22T17:23:56Z</time>
      </trkpt>
      <trkpt lat="60.917128" lon="15.074252">
        <ele>159.042</ele>
        <time>2011-06-22T17:24:02Z</time>
      </trkpt>
      <trkpt lat="60.917004" lon="15.073732">
        <ele>159.924</ele>
        <time>2011-06-22T17:24:07Z</time>
      </trkpt>
      <trkpt lat="60.916893" lon="15.072997">
        <ele>160.529</ele>
        <time>2011-06-22T17:24:14Z</time>
      </trkpt>
      <trkpt lat="60.916785" lon="15.072501">
        <ele>160.69</ele>
        <time>2011-06-22T17:24:19Z</time>
      </trkpt>
      <trkpt lat="60.916599" lon="15.071485">
        <ele>161.148</ele>
        <time>2011-06-22T17:24:29Z</time>
      </trkpt>
      <trkpt lat="60.916489" lon="15.070735">
        <ele>162.203</ele>
        <time>2011-06-22T17:24:36Z</time>
      </trkpt>
      <trkpt lat="60.916445" lon="15.070151">
        <ele>163.843</ele>
        <time>2011-06-22T17:24:42Z</time>
      </trkpt>
      <trkpt lat="60.916431" lon="15.069629">
        <ele>165.379</ele>
        <time>2011-06-22T17:24:48Z</time>
      </trkpt>
      <trkpt lat="60.916426" lon="15.069038">
        <ele>164.543</ele>
        <time>2011-06-22T17:24:54Z</time>
      </trkpt>
      <trkpt lat="60.916412" lon="15.068261">
        <ele>159.582</ele>
        <time>2011-06-22T17:24:59Z</time>
      </trkpt>
      <trkpt lat="60.916366" lon="15.06717">
        <ele>156.398</ele>
        <time>2011-06-22T17:25:05Z</time>
      </trkpt>
      <trkpt lat="60.91625" lon="15.065593">
        <ele>151.302</ele>
        <time>2011-06-22T17:25:13Z</time>
      </trkpt>
      <trkpt lat="60.916153" lon="15.064415">
        <ele>149.92</ele>
        <time>2011-06-22T17:25:19Z</time>
      </trkpt>
      <trkpt lat="60.916086" lon="15.063662">
        <ele>151.664</ele>
        <time>2011-06-22T17:25:24Z</time>
      </trkpt>
      <trkpt lat="60.916035" lon="15.063112">
        <ele>151.535</ele>
        <time>2011-06-22T17:25:28Z</time>
      </trkpt>
      <trkpt lat="60.915995" lon="15.062152">
        <ele>149.026</ele>
        <time>2011-06-22T17:25:34Z</time>
      </trkpt>
      <trkpt lat="60.915952" lon="15.061095">
        <ele>145.414</ele>
        <time>2011-06-22T17:25:40Z</time>
      </trkpt>
      <trkpt lat="60.915905" lon="15.060353">
        <ele>142.339</ele>
        <time>2011-06-22T17:25:44Z</time>
      </trkpt>
      <trkpt lat="60.915673" lon="15.059311">
        <ele>138.656</ele>
        <time>2011-06-22T17:25:50Z</time>
      </trkpt>
      <trkpt lat="60.915377" lon="15.058428">
        <ele>134.03</ele>
        <time>2011-06-22T17:25:55Z</time>
      </trkpt>
      <trkpt lat="60.915169" lon="15.057583">
        <ele>130.505</ele>
        <time>2011-06-22T17:25:59Z</time>
      </trkpt>
      <trkpt lat="60.915095" lon="15.057151">
        <ele>129.607</ele>
        <time>2011-06-22T17:26:01Z</time>
      </trkpt>
      <trkpt lat="60.914962" lon="15.056365">
        <ele>129.535</ele>
        <time>2011-06-22T17:26:05Z</time>
      </trkpt>
      <trkpt lat="60.914825" lon="15.055378">
        <ele>132.273</ele>
        <time>2011-06-22T17:26:11Z</time>
      </trkpt>
      <trkpt lat="60.914681" lon="15.054503">
        <ele>133.822</ele>
        <time>2011-06-22T17:26:17Z</time>
      </trkpt>
      <trkpt lat="60.914534" lon="15.053836">
        <ele>135.06</ele>
        <time>2011-06-22T17:26:22Z</time>
      </trkpt>
      <trkpt lat="60.914405" lon="15.053282">
        <ele>137.024</ele>
        <time>2011-06-22T17:26:27Z</time>
      </trkpt>
      <trkpt lat="60.914288" lon="15.052673">
        <ele>138.163</ele>
        <time>2011-06-22T17:26:33Z</time>
      </trkpt>
      <trkpt lat="60.914089" lon="15.051663">
        <ele>136.634</ele>
        <time>2011-06-22T17:26:42Z</time>
      </trkpt>
      <trkpt lat="60.913888" lon="15.05095">
        <ele>133.98</ele>
        <time>2011-06-22T17:26:48Z</time>
      </trkpt>
      <trkpt lat="60.913599" lon="15.050153">
        <ele>130.1</ele>
        <time>2011-06-22T17:26:55Z</time>
      </trkpt>
      <trkpt lat="60.913479" lon="15.049748">
        <ele>128.181</ele>
        <time>2011-06-22T17:26:59Z</time>
      </trkpt>
      <trkpt lat="60.913473" lon="15.0494">
        <ele>127.893</ele>
        <time>2011-06-22T17:27:03Z</time>
      </trkpt>
      <trkpt lat="60.913517" lon="15.049207">
        <ele>127.873</ele>
        <time>2011-06-22T17:27:05Z</time>
      </trkpt>
      <trkpt lat="60.91377" lon="15.048081">
        <ele>127.18</ele>
        <time>2011-06-22T17:27:15Z</time>
      </trkpt>
      <trkpt lat="60.913963" lon="15.047069">
        <ele>126.844</ele>
        <time>2011-06-22T17:27:23Z</time>
      </trkpt>
      <trkpt lat="60.914087" lon="15.046096">
        <ele>126.522</ele>
        <time>2011-06-22T17:27:30Z</time>
      </trkpt>
      <trkpt lat="60.914209" lon="15.044809">
        <ele>126.681</ele>
        <time>2011-06-22T17:27:39Z</time>
      </trkpt>
      <trkpt lat="60.91428" lon="15.043463">
        <ele>126.223</ele>
        <time>2011-06-22T17:27:48Z</time>
      </trkpt>
      <trkpt lat="60.914281" lon="15.042099">
        <ele>125.833</ele>
        <time>2011-06-22T17:27:57Z</time>
      </trkpt>
      <trkpt lat="60.914222" lon="15.040721">
        <ele>125.534</ele>
        <time>2011-06-22T17:28:06Z</time>
      </trkpt>
      <trkpt lat="60.914124" lon="15.039546">
        <ele>125.493</ele>
        <time>2011-06-22T17:28:14Z</time>
      </trkpt>
      <trkpt lat="60.914017" lon="15.038261">
        <ele>125.794</ele>
        <time>2011-06-22T17:28:23Z</time>
      </trkpt>
      <trkpt lat="60.913948" lon="15.037492">
        <ele>126.86</ele>
        <time>2011-06-22T17:28:29Z</time>
      </trkpt>
      <trkpt lat="60.913813" lon="15.036556">
        <ele>127.921</ele>
        <time>2011-06-22T17:28:37Z</time>
      </trkpt>
      <trkpt lat="60.913769" lon="15.036069">
        <ele>128.855</ele>
        <time>2011-06-22T17:28:42Z</time>
      </trkpt>
      <trkpt lat="60.913674" lon="15.035814">
        <ele>129.444</ele>
        <time>2011-06-22T17:28:46Z</time>
      </trkpt>
      <trkpt lat="60.913499" lon="15.035766">
        <ele>128.895</ele>
        <time>2011-06-22T17:28:50Z</time>
      </trkpt>
      <trkpt lat="60.913388" lon="15.035948">
        <ele>128.603</ele>
        <time>2011-06-22T17:28:53Z</time>
      </trkpt>
      <trkpt lat="60.913349" lon="15.036357">
        <ele>128.422</ele>
        <time>2011-06-22T17:28:57Z</time>
      </trkpt>
      <trkpt lat="60.913352" lon="15.036472">
        <ele>128.303</ele>
        <time>2011-06-22T17:28:58Z</time>
      </trkpt>
      <trkpt lat="60.913358" lon="15.037125">
        <ele>126.288</ele>
        <time>2011-06-22T17:29:03Z</time>
      </trkpt>
      <trkpt lat="60.913274" lon="15.037856">
        <ele>123.38</ele>
        <time>2011-06-22T17:29:08Z</time>
      </trkpt>
      <trkpt lat="60.91325" lon="15.038015">
        <ele>123.105</ele>
        <time>2011-06-22T17:29:09Z</time>
      </trkpt>
      <trkpt lat="60.913004" lon="15.03949">
        <ele>118.916</ele>
        <time>2011-06-22T17:29:18Z</time>
      </trkpt>
      <trkpt lat="60.912722" lon="15.041154">
        <ele>116.919</ele>
        <time>2011-06-22T17:29:28Z</time>
      </trkpt>
      <trkpt lat="60.912442" lon="15.042816">
        <ele>115.758</ele>
        <time>2011-06-22T17:29:38Z</time>
      </trkpt>
      <trkpt lat="60.912161" lon="15.044485">
        <ele>114.915</ele>
        <time>2011-06-22T17:29:48Z</time>
      </trkpt>
      <trkpt lat="60.911957" lon="15.045695">
        <ele>115.441</ele>
        <time>2011-06-22T17:29:56Z</time>
      </trkpt>
      <trkpt lat="60.911794" lon="15.046378">
        <ele>115.632</ele>
        <time>2011-06-22T17:30:01Z</time>
      </trkpt>
      <trkpt lat="60.911711" lon="15.046608">
        <ele>115.816</ele>
        <time>2011-06-22T17:30:03Z</time>
      </trkpt>
      <trkpt lat="60.911386" lon="15.047325">
        <ele>116.426</ele>
        <time>2011-06-22T17:30:11Z</time>
      </trkpt>
      <trkpt lat="60.91113" lon="15.047857">
        <ele>115.75</ele>
        <time>2011-06-22T17:30:17Z</time>
      </trkpt>
      <trkpt lat="60.910727" lon="15.048676">
        <ele>115.824</ele>
        <time>2011-06-22T17:30:26Z</time>
      </trkpt>
      <trkpt lat="60.910533" lon="15.049073">
        <ele>117.016</ele>
        <time>2011-06-22T17:30:31Z</time>
      </trkpt>
      <trkpt lat="60.910415" lon="15.04945">
        <ele>117.263</ele>
        <time>2011-06-22T17:30:35Z</time>
      </trkpt>
      <trkpt lat="60.910178" lon="15.05031">
        <ele>116.741</ele>
        <time>2011-06-22T17:30:44Z</time>
      </trkpt>
      <trkpt lat="60.909873" lon="15.051118">
        <ele>117.103</ele>
        <time>2011-06-22T17:30:53Z</time>
      </trkpt>
      <trkpt lat="60.909772" lon="15.051361">
        <ele>117.582</ele>
        <time>2011-06-22T17:30:56Z</time>
      </trkpt>
      <trkpt lat="60.909542" lon="15.051768">
        <ele>119.018</ele>
        <time>2011-06-22T17:31:02Z</time>
      </trkpt>
      <trkpt lat="60.909349" lon="15.052087">
        <ele>120.42</ele>
        <time>2011-06-22T17:31:07Z</time>
      </trkpt>
      <trkpt lat="60.909267" lon="15.052202">
        <ele>120.868</ele>
        <time>2011-06-22T17:31:09Z</time>
      </trkpt>
      <trkpt lat="60.909014" lon="15.052531">
        <ele>122.032</ele>
        <time>2011-06-22T17:31:15Z</time>
      </trkpt>
      <trkpt lat="60.908763" lon="15.052842">
        <ele>123.116</ele>
        <time>2011-06-22T17:31:21Z</time>
      </trkpt>
      <trkpt lat="60.908508" lon="15.053136">
        <ele>125.151</ele>
        <time>2011-06-22T17:31:27Z</time>
      </trkpt>
      <trkpt lat="60.908292" lon="15.053394">
        <ele>125.584</ele>
        <time>2011-06-22T17:31:32Z</time>
      </trkpt>
      <trkpt lat="60.90825" lon="15.053456">
        <ele>125.513</ele>
        <time>2011-06-22T17:31:33Z</time>
      </trkpt>
      <trkpt lat="60.907974" lon="15.053786">
        <ele>126.217</ele>
        <time>2011-06-22T17:31:39Z</time>
      </trkpt>
      <trkpt lat="60.907679" lon="15.054126">
        <ele>127.363</ele>
        <time>2011-06-22T17:31:45Z</time>
      </trkpt>
      <trkpt lat="60.907472" lon="15.05439">
        <ele>128.471</ele>
        <time>2011-06-22T17:31:51Z</time>
      </trkpt>
      <trkpt lat="60.907339" lon="15.054562">
        <ele>129.137</ele>
        <time>2011-06-22T17:31:56Z</time>
      </trkpt>
      <trkpt lat="60.907133" lon="15.054792">
        <ele>129.449</ele>
        <time>2011-06-22T17:32:03Z</time>
      </trkpt>
      <trkpt lat="60.906921" lon="15.055034">
        <ele>129.672</ele>
        <time>2011-06-22T17:32:10Z</time>
      </trkpt>
      <trkpt lat="60.906626" lon="15.055371">
        <ele>130.533</ele>
        <time>2011-06-22T17:32:19Z</time>
      </trkpt>
      <trkpt lat="60.906376" lon="15.055652">
        <ele>132.053</ele>
        <time>2011-06-22T17:32:27Z</time>
      </trkpt>
      <trkpt lat="60.906217" lon="15.055802">
        <ele>133.541</ele>
        <time>2011-06-22T17:32:32Z</time>
      </trkpt>
      <trkpt lat="60.906068" lon="15.055928">
        <ele>135.134</ele>
        <time>2011-06-22T17:32:37Z</time>
      </trkpt>
      <trkpt lat="60.905908" lon="15.056044">
        <ele>136.107</ele>
        <time>2011-06-22T17:32:42Z</time>
      </trkpt>
      <trkpt lat="60.905642" lon="15.056212">
        <ele>136.656</ele>
        <time>2011-06-22T17:32:50Z</time>
      </trkpt>
      <trkpt lat="60.905365" lon="15.056373">
        <ele>137.86</ele>
        <time>2011-06-22T17:32:58Z</time>
      </trkpt>
      <trkpt lat="60.905107" lon="15.056534">
        <ele>138.326</ele>
        <time>2011-06-22T17:33:05Z</time>
      </trkpt>
      <trkpt lat="60.90478" lon="15.056729">
        <ele>138.672</ele>
        <time>2011-06-22T17:33:13Z</time>
      </trkpt>
      <trkpt lat="60.904424" lon="15.05696">
        <ele>139.264</ele>
        <time>2011-06-22T17:33:21Z</time>
      </trkpt>
      <trkpt lat="60.903878" lon="15.057271">
        <ele>139.495</ele>
        <time>2011-06-22T17:33:32Z</time>
      </trkpt>
      <trkpt lat="60.903479" lon="15.05742">
        <ele>140.198</ele>
        <time>2011-06-22T17:33:40Z</time>
      </trkpt>
      <trkpt lat="60.903194" lon="15.057571">
        <ele>140.345</ele>
        <time>2011-06-22T17:33:46Z</time>
      </trkpt>
      <trkpt lat="60.903058" lon="15.057673">
        <ele>140.92</ele>
        <time>2011-06-22T17:33:49Z</time>
      </trkpt>
      <trkpt lat="60.90276" lon="15.058102">
        <ele>143.054</ele>
        <time>2011-06-22T17:33:57Z</time>
      </trkpt>
      <trkpt lat="60.902637" lon="15.058389">
        <ele>143.975</ele>
        <time>2011-06-22T17:34:01Z</time>
      </trkpt>
      <trkpt lat="60.902429" lon="15.058828">
        <ele>144.601</ele>
        <time>2011-06-22T17:34:07Z</time>
      </trkpt>
      <trkpt lat="60.902221" lon="15.059484">
        <ele>145.185</ele>
        <time>2011-06-22T17:34:15Z</time>
      </trkpt>
      <trkpt lat="60.90204" lon="15.060232">
        <ele>145.375</ele>
        <time>2011-06-22T17:34:23Z</time>
      </trkpt>
      <trkpt lat="60.901888" lon="15.060826">
        <ele>146.663</ele>
        <time>2011-06-22T17:34:30Z</time>
      </trkpt>
      <trkpt lat="60.901792" lon="15.061322">
        <ele>148.441</ele>
        <time>2011-06-22T17:34:36Z</time>
      </trkpt>
      <trkpt lat="60.90177" lon="15.061488">
        <ele>148.975</ele>
        <time>2011-06-22T17:34:38Z</time>
      </trkpt>
      <trkpt lat="60.901702" lon="15.061907">
        <ele>150.429</ele>
        <time>2011-06-22T17:34:43Z</time>
      </trkpt>
      <trkpt lat="60.901631" lon="15.062429">
        <ele>151.41</ele>
        <time>2011-06-22T17:34:49Z</time>
      </trkpt>
      <trkpt lat="60.901493" lon="15.063227">
        <ele>151.343</ele>
        <time>2011-06-22T17:34:58Z</time>
      </trkpt>
      <trkpt lat="60.901428" lon="15.064082">
        <ele>149.914</ele>
        <time>2011-06-22T17:35:05Z</time>
      </trkpt>
      <trkpt lat="60.9014" lon="15.06493">
        <ele>149.486</ele>
        <time>2011-06-22T17:35:12Z</time>
      </trkpt>
      <trkpt lat="60.901369" lon="15.065893">
        <ele>149.727</ele>
        <time>2011-06-22T17:35:21Z</time>
      </trkpt>
      <trkpt lat="60.901376" lon="15.066603">
        <ele>150.914</ele>
        <time>2011-06-22T17:35:28Z</time>
      </trkpt>
      <trkpt lat="60.901419" lon="15.067092">
        <ele>151.938</ele>
        <time>2011-06-22T17:35:33Z</time>
      </trkpt>
      <trkpt lat="60.901486" lon="15.067817">
        <ele>152.578</ele>
        <time>2011-06-22T17:35:40Z</time>
      </trkpt>
      <trkpt lat="60.901475" lon="15.068254">
        <ele>152.511</ele>
        <time>2011-06-22T17:35:44Z</time>
      </trkpt>
      <trkpt lat="60.901324" lon="15.068937">
        <ele>151.856</ele>
        <time>2011-06-22T17:35:51Z</time>
      </trkpt>
      <trkpt lat="60.901035" lon="15.069697">
        <ele>150.889</ele>
        <time>2011-06-22T17:35:59Z</time>
      </trkpt>
      <trkpt lat="60.90083" lon="15.070466">
        <ele>150.261</ele>
        <time>2011-06-22T17:36:06Z</time>
      </trkpt>
      <trkpt lat="60.900653" lon="15.071319">
        <ele>148.153</ele>
        <time>2011-06-22T17:36:13Z</time>
      </trkpt>
      <trkpt lat="60.900463" lon="15.072222">
        <ele>146.913</ele>
        <time>2011-06-22T17:36:20Z</time>
      </trkpt>
      <trkpt lat="60.900278" lon="15.072857">
        <ele>145.839</ele>
        <time>2011-06-22T17:36:25Z</time>
      </trkpt>
      <trkpt lat="60.900082" lon="15.073722">
        <ele>143.643</ele>
        <time>2011-06-22T17:36:31Z</time>
      </trkpt>
      <trkpt lat="60.899936" lon="15.074353">
        <ele>143.859</ele>
        <time>2011-06-22T17:36:36Z</time>
      </trkpt>
      <trkpt lat="60.899755" lon="15.075056">
        <ele>145.386</ele>
        <time>2011-06-22T17:36:43Z</time>
      </trkpt>
      <trkpt lat="60.89959" lon="15.075752">
        <ele>145.735</ele>
        <time>2011-06-22T17:36:50Z</time>
      </trkpt>
      <trkpt lat="60.899405" lon="15.076512">
        <ele>143.987</ele>
        <time>2011-06-22T17:36:57Z</time>
      </trkpt>
      <trkpt lat="60.899167" lon="15.077512">
        <ele>141.294</ele>
        <time>2011-06-22T17:37:05Z</time>
      </trkpt>
      <trkpt lat="60.898966" lon="15.078325">
        <ele>140.462</ele>
        <time>2011-06-22T17:37:11Z</time>
      </trkpt>
      <trkpt lat="60.898781" lon="15.079088">
        <ele>140.769</ele>
        <time>2011-06-22T17:37:17Z</time>
      </trkpt>
      <trkpt lat="60.898503" lon="15.080289">
        <ele>140.63</ele>
        <time>2011-06-22T17:37:27Z</time>
      </trkpt>
      <trkpt lat="60.8983" lon="15.081148">
        <ele>141.116</ele>
        <time>2011-06-22T17:37:35Z</time>
      </trkpt>
      <trkpt lat="60.898079" lon="15.082052">
        <ele>140.592</ele>
        <time>2011-06-22T17:37:44Z</time>
      </trkpt>
      <trkpt lat="60.897898" lon="15.082765">
        <ele>139.47</ele>
        <time>2011-06-22T17:37:51Z</time>
      </trkpt>
      <trkpt lat="60.897677" lon="15.083656">
        <ele>138.046</ele>
        <time>2011-06-22T17:37:59Z</time>
      </trkpt>
      <trkpt lat="60.897403" lon="15.08478">
        <ele>136.42</ele>
        <time>2011-06-22T17:38:08Z</time>
      </trkpt>
      <trkpt lat="60.897216" lon="15.085574">
        <ele>137.239</ele>
        <time>2011-06-22T17:38:15Z</time>
      </trkpt>
      <trkpt lat="60.897067" lon="15.086214">
        <ele>138.342</ele>
        <time>2011-06-22T17:38:21Z</time>
      </trkpt>
      <trkpt lat="60.896912" lon="15.086843">
        <ele>138.928</ele>
        <time>2011-06-22T17:38:28Z</time>
      </trkpt>
      <trkpt lat="60.8968" lon="15.087312">
        <ele>138.539</ele>
        <time>2011-06-22T17:38:33Z</time>
      </trkpt>
      <trkpt lat="60.896625" lon="15.088074">
        <ele>138.303</ele>
        <time>2011-06-22T17:38:41Z</time>
      </trkpt>
      <trkpt lat="60.896469" lon="15.088714">
        <ele>137.977</ele>
        <time>2011-06-22T17:38:48Z</time>
      </trkpt>
      <trkpt lat="60.896312" lon="15.089409">
        <ele>137.14</ele>
        <time>2011-06-22T17:38:55Z</time>
      </trkpt>
      <trkpt lat="60.896117" lon="15.090194">
        <ele>136.363</ele>
        <time>2011-06-22T17:39:03Z</time>
      </trkpt>
      <trkpt lat="60.895931" lon="15.09088">
        <ele>134.12</ele>
        <time>2011-06-22T17:39:09Z</time>
      </trkpt>
      <trkpt lat="60.895737" lon="15.091664">
        <ele>132.142</ele>
        <time>2011-06-22T17:39:15Z</time>
      </trkpt>
      <trkpt lat="60.895547" lon="15.09248">
        <ele>130.841</ele>
        <time>2011-06-22T17:39:21Z</time>
      </trkpt>
      <trkpt lat="60.895324" lon="15.093346">
        <ele>129.865</ele>
        <time>2011-06-22T17:39:28Z</time>
      </trkpt>
      <trkpt lat="60.895104" lon="15.094292">
        <ele>128.046</ele>
        <time>2011-06-22T17:39:36Z</time>
      </trkpt>
      <trkpt lat="60.894978" lon="15.094793">
        <ele>127.257</ele>
        <time>2011-06-22T17:39:40Z</time>
      </trkpt>
      <trkpt lat="60.894753" lon="15.095771">
        <ele>124.763</ele>
        <time>2011-06-22T17:39:47Z</time>
      </trkpt>
      <trkpt lat="60.894553" lon="15.096691">
        <ele>124.709</ele>
        <time>2011-06-22T17:39:54Z</time>
      </trkpt>
      <trkpt lat="60.894424" lon="15.097516">
        <ele>124.662</ele>
        <time>2011-06-22T17:40:01Z</time>
      </trkpt>
      <trkpt lat="60.894384" lon="15.097856">
        <ele>124.673</ele>
        <time>2011-06-22T17:40:04Z</time>
      </trkpt>
      <trkpt lat="60.894351" lon="15.0983">
        <ele>124.383</ele>
        <time>2011-06-22T17:40:08Z</time>
      </trkpt>
      <trkpt lat="60.894258" lon="15.098391">
        <ele>124.772</ele>
        <time>2011-06-22T17:40:11Z</time>
      </trkpt>
      <trkpt lat="60.89422" lon="15.098371">
        <ele>124.846</ele>
        <time>2011-06-22T17:40:12Z</time>
      </trkpt>
      <trkpt lat="60.893859" lon="15.09842">
        <ele>123.498</ele>
        <time>2011-06-22T17:40:19Z</time>
      </trkpt>
      <trkpt lat="60.893671" lon="15.098466">
        <ele>122.159</ele>
        <time>2011-06-22T17:40:22Z</time>
      </trkpt>
      <trkpt lat="60.893234" lon="15.098563">
        <ele>121.099</ele>
        <time>2011-06-22T17:40:29Z</time>
      </trkpt>
      <trkpt lat="60.893034" lon="15.098628">
        <ele>120.028</ele>
        <time>2011-06-22T17:40:32Z</time>
      </trkpt>
      <trkpt lat="60.892802" lon="15.098976">
        <ele>118.498</ele>
        <time>2011-06-22T17:40:36Z</time>
      </trkpt>
      <trkpt lat="60.89277" lon="15.099119">
        <ele>118.498</ele>
        <time>2011-06-22T17:40:37Z</time>
      </trkpt>
      <trkpt lat="60.892708" lon="15.099398">
        <ele>118.169</ele>
        <time>2011-06-22T17:40:39Z</time>
      </trkpt>
      <trkpt lat="60.892519" lon="15.099742">
        <ele>118.636</ele>
        <time>2011-06-22T17:40:43Z</time>
      </trkpt>
      <trkpt lat="60.892401" lon="15.099801">
        <ele>119.475</ele>
        <time>2011-06-22T17:40:45Z</time>
      </trkpt>
      <trkpt lat="60.892194" lon="15.099853">
        <ele>120.593</ele>
        <time>2011-06-22T17:40:49Z</time>
      </trkpt>
      <trkpt lat="60.892001" lon="15.099946">
        <ele>121.906</ele>
        <time>2011-06-22T17:40:53Z</time>
      </trkpt>
      <trkpt lat="60.891814" lon="15.10018">
        <ele>123.89</ele>
        <time>2011-06-22T17:40:58Z</time>
      </trkpt>
      <trkpt lat="60.891644" lon="15.100362">
        <ele>125.271</ele>
        <time>2011-06-22T17:41:04Z</time>
      </trkpt>
      <trkpt lat="60.891447" lon="15.100383">
        <ele>124.85</ele>
        <time>2011-06-22T17:41:10Z</time>
      </trkpt>
      <trkpt lat="60.89124" lon="15.100328">
        <ele>123.689</ele>
        <time>2011-06-22T17:41:15Z</time>
      </trkpt>
      <trkpt lat="60.891194" lon="15.100321">
        <ele>123.502</ele>
        <time>2011-06-22T17:41:16Z</time>
      </trkpt>
      <trkpt lat="60.890996" lon="15.100431">
        <ele>122.736</ele>
        <time>2011-06-22T17:41:20Z</time>
      </trkpt>
      <trkpt lat="60.8907" lon="15.100944">
        <ele>121.241</ele>
        <time>2011-06-22T17:41:27Z</time>
      </trkpt>
      <trkpt lat="60.890455" lon="15.101373">
        <ele>120.328</ele>
        <time>2011-06-22T17:41:33Z</time>
      </trkpt>
      <trkpt lat="60.890204" lon="15.101821">
        <ele>118.969</ele>
        <time>2011-06-22T17:41:39Z</time>
      </trkpt>
      <trkpt lat="60.890159" lon="15.101912">
        <ele>118.343</ele>
        <time>2011-06-22T17:41:40Z</time>
      </trkpt>
      <trkpt lat="60.890081" lon="15.102126">
        <ele>117.451</ele>
        <time>2011-06-22T17:41:42Z</time>
      </trkpt>
      <trkpt lat="60.890055" lon="15.102558">
        <ele>115.519</ele>
        <time>2011-06-22T17:41:45Z</time>
      </trkpt>
      <trkpt lat="60.890103" lon="15.10284">
        <ele>114.607</ele>
        <time>2011-06-22T17:41:47Z</time>
      </trkpt>
      <trkpt lat="60.890353" lon="15.103723">
        <ele>115.639</ele>
        <time>2011-06-22T17:41:55Z</time>
      </trkpt>
      <trkpt lat="60.890384" lon="15.103834">
        <ele>115.561</ele>
        <time>2011-06-22T17:41:56Z</time>
      </trkpt>
      <trkpt lat="60.890501" lon="15.104437">
        <ele>114.935</ele>
        <time>2011-06-22T17:42:01Z</time>
      </trkpt>
      <trkpt lat="60.890564" lon="15.105259">
        <ele>115.237</ele>
        <time>2011-06-22T17:42:08Z</time>
      </trkpt>
      <trkpt lat="60.890619" lon="15.105994">
        <ele>115.394</ele>
        <time>2011-06-22T17:42:15Z</time>
      </trkpt>
      <trkpt lat="60.890695" lon="15.106486">
        <ele>115.492</ele>
        <time>2011-06-22T17:42:20Z</time>
      </trkpt>
      <trkpt lat="60.890638" lon="15.106756">
        <ele>115.394</ele>
        <time>2011-06-22T17:42:23Z</time>
      </trkpt>
      <trkpt lat="60.890543" lon="15.106842">
        <ele>115.235</ele>
        <time>2011-06-22T17:42:25Z</time>
      </trkpt>
      <trkpt lat="60.890171" lon="15.107279">
        <ele>115.035</ele>
        <time>2011-06-22T17:42:33Z</time>
      </trkpt>
      <trkpt lat="60.889947" lon="15.107576">
        <ele>115.206</ele>
        <time>2011-06-22T17:42:38Z</time>
      </trkpt>
      <trkpt lat="60.889691" lon="15.107923">
        <ele>115.55</ele>
        <time>2011-06-22T17:42:44Z</time>
      </trkpt>
      <trkpt lat="60.889286" lon="15.108421">
        <ele>115.928</ele>
        <time>2011-06-22T17:42:53Z</time>
      </trkpt>
      <trkpt lat="60.888864" lon="15.108999">
        <ele>116.017</ele>
        <time>2011-06-22T17:43:02Z</time>
      </trkpt>
      <trkpt lat="60.888504" lon="15.109467">
        <ele>115.885</ele>
        <time>2011-06-22T17:43:10Z</time>
      </trkpt>
      <trkpt lat="60.888415" lon="15.109555">
        <ele>115.833</ele>
        <time>2011-06-22T17:43:12Z</time>
      </trkpt>
      <trkpt lat="60.888121" lon="15.109671">
        <ele>116.06</ele>
        <time>2011-06-22T17:43:19Z</time>
      </trkpt>
      <trkpt lat="60.887927" lon="15.109884">
        <ele>116.385</ele>
        <time>2011-06-22T17:43:25Z</time>
      </trkpt>
      <trkpt lat="60.887784" lon="15.110264">
        <ele>116.59</ele>
        <time>2011-06-22T17:43:31Z</time>
      </trkpt>
      <trkpt lat="60.887741" lon="15.110692">
        <ele>116.709</ele>
        <time>2011-06-22T17:43:37Z</time>
      </trkpt>
      <trkpt lat="60.887678" lon="15.1112">
        <ele>116.738</ele>
        <time>2011-06-22T17:43:44Z</time>
      </trkpt>
      <trkpt lat="60.887553" lon="15.111547">
        <ele>116.671</ele>
        <time>2011-06-22T17:43:49Z</time>
      </trkpt>
      <trkpt lat="60.887258" lon="15.11197">
        <ele>116.446</ele>
        <time>2011-06-22T17:43:57Z</time>
      </trkpt>
      <trkpt lat="60.886837" lon="15.112505">
        <ele>116.009</ele>
        <time>2011-06-22T17:44:07Z</time>
      </trkpt>
      <trkpt lat="60.886492" lon="15.112944">
        <ele>116.044</ele>
        <time>2011-06-22T17:44:15Z</time>
      </trkpt>
      <trkpt lat="60.886105" lon="15.113453">
        <ele>115.966</ele>
        <time>2011-06-22T17:44:24Z</time>
      </trkpt>
      <trkpt lat="60.885704" lon="15.113981">
        <ele>116.262</ele>
        <time>2011-06-22T17:44:33Z</time>
      </trkpt>
      <trkpt lat="60.88527" lon="15.114544">
        <ele>116.097</ele>
        <time>2011-06-22T17:44:43Z</time>
      </trkpt>
      <trkpt lat="60.885039" lon="15.114835">
        <ele>116.229</ele>
        <time>2011-06-22T17:44:49Z</time>
      </trkpt>
      <trkpt lat="60.884889" lon="15.115123">
        <ele>116.217</ele>
        <time>2011-06-22T17:44:54Z</time>
      </trkpt>
      <trkpt lat="60.884873" lon="15.115313">
        <ele>116.401</ele>
        <time>2011-06-22T17:44:57Z</time>
      </trkpt>
      <trkpt lat="60.884935" lon="15.115491">
        <ele>116.464</ele>
        <time>2011-06-22T17:45:00Z</time>
      </trkpt>
      <trkpt lat="60.885039" lon="15.115777">
        <ele>117.134</ele>
        <time>2011-06-22T17:45:06Z</time>
      </trkpt>
      <trkpt lat="60.885109" lon="15.11603">
        <ele>117.023</ele>
        <time>2011-06-22T17:45:10Z</time>
      </trkpt>
      <trkpt lat="60.88526" lon="15.116521">
        <ele>117.106</ele>
        <time>2011-06-22T17:45:17Z</time>
      </trkpt>
      <trkpt lat="60.885237" lon="15.116714">
        <ele>117.169</ele>
        <time>2011-06-22T17:45:20Z</time>
      </trkpt>
      <trkpt lat="60.885196" lon="15.116753">
        <ele>117.099</ele>
        <time>2011-06-22T17:45:21Z</time>
      </trkpt>
      <trkpt lat="60.884796" lon="15.117006">
        <ele>116.792</ele>
        <time>2011-06-22T17:45:29Z</time>
      </trkpt>
      <trkpt lat="60.884459" lon="15.117142">
        <ele>116.393</ele>
        <time>2011-06-22T17:45:35Z</time>
      </trkpt>
      <trkpt lat="60.884237" lon="15.117042">
        <ele>115.828</ele>
        <time>2011-06-22T17:45:39Z</time>
      </trkpt>
      <trkpt lat="60.884072" lon="15.117117">
        <ele>115.847</ele>
        <time>2011-06-22T17:45:42Z</time>
      </trkpt>
      <trkpt lat="60.88382" lon="15.11744">
        <ele>116.187</ele>
        <time>2011-06-22T17:45:47Z</time>
      </trkpt>
      <trkpt lat="60.883121" lon="15.117868">
        <ele>116.021</ele>
        <time>2011-06-22T17:45:59Z</time>
      </trkpt>
      <trkpt lat="60.882455" lon="15.118261">
        <ele>116.219</ele>
        <time>2011-06-22T17:46:10Z</time>
      </trkpt>
      <trkpt lat="60.881945" lon="15.118444">
        <ele>116.165</ele>
        <time>2011-06-22T17:46:18Z</time>
      </trkpt>
      <trkpt lat="60.881372" lon="15.118446">
        <ele>116.434</ele>
        <time>2011-06-22T17:46:27Z</time>
      </trkpt>
      <trkpt lat="60.880699" lon="15.118254">
        <ele>116.956</ele>
        <time>2011-06-22T17:46:38Z</time>
      </trkpt>
      <trkpt lat="60.88024" lon="15.118015">
        <ele>116.8</ele>
        <time>2011-06-22T17:46:46Z</time>
      </trkpt>
      <trkpt lat="60.880085" lon="15.117849">
        <ele>116.944</ele>
        <time>2011-06-22T17:46:49Z</time>
      </trkpt>
      <trkpt lat="60.879936" lon="15.117853">
        <ele>117.281</ele>
        <time>2011-06-22T17:46:52Z</time>
      </trkpt>
      <trkpt lat="60.879908" lon="15.118036">
        <ele>117.66</ele>
        <time>2011-06-22T17:46:54Z</time>
      </trkpt>
      <trkpt lat="60.879913" lon="15.118938">
        <ele>118.575</ele>
        <time>2011-06-22T17:47:03Z</time>
      </trkpt>
      <trkpt lat="60.879908" lon="15.119475">
        <ele>119.966</ele>
        <time>2011-06-22T17:47:09Z</time>
      </trkpt>
      <trkpt lat="60.87997" lon="15.119975">
        <ele>121.434</ele>
        <time>2011-06-22T17:47:15Z</time>
      </trkpt>
      <trkpt lat="60.879982" lon="15.120054">
        <ele>121.625</ele>
        <time>2011-06-22T17:47:16Z</time>
      </trkpt>
      <trkpt lat="60.880076" lon="15.120429">
        <ele>121.913</ele>
        <time>2011-06-22T17:47:21Z</time>
      </trkpt>
      <trkpt lat="60.880181" lon="15.12085">
        <ele>122.037</ele>
        <time>2011-06-22T17:47:27Z</time>
      </trkpt>
      <trkpt lat="60.880164" lon="15.12126">
        <ele>122.402</ele>
        <time>2011-06-22T17:47:33Z</time>
      </trkpt>
      <trkpt lat="60.88019" lon="15.121746">
        <ele>123.912</ele>
        <time>2011-06-22T17:47:41Z</time>
      </trkpt>
      <trkpt lat="60.880289" lon="15.122269">
        <ele>125.309</ele>
        <time>2011-06-22T17:47:51Z</time>
      </trkpt>
      <trkpt lat="60.880385" lon="15.122641">
        <ele>125.8</ele>
        <time>2011-06-22T17:47:58Z</time>
      </trkpt>
      <trkpt lat="60.880399" lon="15.122699">
        <ele>125.303</ele>
        <time>2011-06-22T17:47:59Z</time>
      </trkpt>
    </trkseg>
  </trk>
</gpx>